Crime / Courts

City of Aiken Outstanding Warrants

A warrant is merely an accusation of a criminal charge and all persons on this list are presumed innocent until proven guilty by a court of law. Misuse of warrant information may subject you to Civil or criminal liability. AN ARREST WITHOUT DISPOSITION IS NOT AN INDICATION OF GUILT

The accuracy of this information is not guaranteed and data is subject to change without notice.

This page shows persons with possibly active warrants held by the Aiken Department of Public Safety in Aiken, South Carolina.

If you know anyone who may be on the warrant list you are encouraged to contact Crimestoppers of the Midlands: (888) CRIME-SC (888-274-6372), submit a tip online at Crimestoppers TipSubmit or via SLED. Callers will remain anonymous and could receive a reward of between $50 and $1000. You should not attempt to physically apprehend any individual who may appear on this list. Warrants must be confirmed for validity by authorized law enforcement personnel and no action should be taken based solely on this website listing.

Warrant IssuedLast NameFirst NameMiddle NameDOBAgeEthnicitySexAddressCityStateViolationViolation DateWarrant Number
12/11/2019WilliamsDavidMarkenzie Dynel08/16/199128BM3607 Gold Finch DrAugustaGADRUGS/Simple Possession Marijuana 28g1st02/15/20192019B0220100635
12/11/2019PetersonDestiny04/21/200019BF643 Crab TrlAikenSCDisorderly / Public disorderly conduct03/09/20182019B0220100638
12/11/2019HollingsworthAlvinJr05/14/198237BM223 Columbia AvenueAIKENSCDisorderly/Public disorderly conduct12/11/20192019A0220101184
12/10/2019SandersDameun06/16/199227BM217 Stillwater RdWindsorSCDUS 1st /Driving under suspension, lice09/12/20192019B0220100629
12/10/2019SandersDameun06/16/199227BM217 Stillwater RdWindsorSCFAILURE TO COMPLY CITY CODE AMENDED 20009/12/20192019B0220100630
12/10/2019QuarlesJustinTyler08/04/200019WM1285 Barn Owl RoadAikenSCSHOPLIFTING, VALUE $2,000 OR LESS06/21/20192019B0220100631
12/10/2019QuarlesJustinTyler08/04/200019WM1285 Barn Owl RoadAikenSCTRESPASSING/Entering premises after warn06/21/20192019B0220100632
12/10/2019BrownBrandiNicole02/08/199524WF124 Beas WayJacksonSCBREACH/ Breach of trust with fraudulent11/10/20182019B0220100633
12/09/2019JanesChelseaNichole01/08/199227BF1325 Tow Notch RdAikenSCContempt of Municipal Court DUS 3rd11/07/20192019B0220100627
12/08/2019TurnerWayneB08/13/197049BM1534 Maple StreetAugustaGADomestic / Domestic Violence, 3rd degree12/07/20192019A0220101174
12/08/2019TurnerWayneB08/13/197049BM1534 Maple StreetAugustaGABREACH / Breach of trust with fraudulent12/07/20192019A0220101175
12/08/2019TurnerWayneB08/13/197049BM1534 Maple StreetAugustaGANo Driver's License (1st Offense)12/07/20192019A0220101176
12/06/2019WrightDamianMarques02/05/199326BM311b York St NeAikenSCMalicious injury to real property $200012/05/20192019A0220101167
12/05/2019GordonJesseJames06/10/197148WM611 Wrights Mill RoadAikenSCDomestic / Violation of court order of p08/03/20192019B0220100625
12/05/2019MoseleyMichaelCharles09/15/198732BM1398 President DrAikenSCDUS 1st10/23/20172019B0220100626
12/04/2019SettlesChesterLee02/15/199029BM354 Greenville St N WAikenSCASSAULT/Assault & Battery 3rd degree12/03/20192019A0220101163
12/04/2019DurdenVirginiaRenee06/26/197643WF252 Bleachery StClearwaterSCContempt of Municipal Court Shoplifting11/06/20192019B0220100624
12/03/2019SwansonAnthonyM03/17/198633WM3008 Pinewood Dr.AugustaGABREACH / Breach of trust with fraudulent12/03/20192019A0220101160
12/03/2019SwansonAnthonyM03/17/198633WM3008 Pinewood Dr.AugustaGABREACH / Breach of trust with fraudulent12/03/20192019A0220101161
11/28/2019PalmerJermaine10/20/198435BM1028 Croft Ave NeAikenSCSHOPLIFTING, VALUE $2,000 OR LESS11/27/20192019A0220101140
11/28/2019PalmerJermaine10/20/198435BM1028 Croft Ave NeAikenSCSHOPLIFTING, VALUE $2,000 OR LESS11/28/20192019A0220101141
11/28/2019WhiteKamilia05/06/198633BF370 Jerrys Folly RdAikenSCSHOPLIFTING, VALUE $2,000 OR LESS11/28/20192019A0220101142
11/28/2019WhiteKamilia05/06/198633BF370 Jerrys Folly RdAikenSCSHOPLIFTING, VALUE $2,000 OR LESS11/28/20192019A0220101143
11/27/2019DunbarRishawnQuindell07/06/199326BM253 Lee DrWarrenvilleSCDUS / Driving under suspension, license07/13/20192019B0220100610
11/27/2019BrownTityanaQuasheda04/05/199722BF828 Brandt Court Apt CAikenSCDISORDERLY CONDUCT09/22/20192019B0220100611
11/27/2019NewbillMychalTroy01/18/198534BM724 OLD BARNWELL RDAIKENSCTRESPASSING/Entering premises after warn08/25/20192019B0220100612
11/27/2019GreenAlyshaMonique06/05/199623BF3056 Home RoadAikenSCDUS / Driving under suspension, license06/24/20192019B0220100613
11/27/2019GreenAlyshaMonique06/05/199623BF3056 Home RoadAikenSCTraffic / Disregarding stop sign06/24/20192019B0220100614
11/27/2019DawkinsDariusJohn02/18/197148BM427 Greenville StreetAikenSCSHOPLIFTING, VALUE $2,000 OR LESS08/31/20192019B0220100615
11/27/2019SmithGaryDewayne10/24/196455WM322 Pinwoods Par CirBeech IslandSCSHOPLIFTING, VALUE $2,000 OR LESS08/30/20192019B0220100616
11/27/2019ThomasJeffreyDesjuan07/05/198831BM1142 Alderman St N EAikenSCContempt of Municipal Court DUS10/25/20192019B0220100618
11/27/2019ThompsonAnthonyTerrell02/20/199326BM1042 Old Jordan RdAikenSCASSAULT/Assault & Battery 3rd degree11/27/20192019A0220101139
11/27/2019CaddenTerryCarl Lain10/17/198138WM341 Horseshoe Bend RdAikenSCDUS / Driving under suspension, license09/28/20192019B0220100619
11/21/2019LylesTommyLee08/12/197940WM3974 High Rock RdGibsonvilleNCContempt of Municipal Court Leaving Scen07/10/20192019B0220100607
11/20/2019BerrianJimmy Lee01/04/199029BM1916 Richmond Ave Apt BAugustaGAWEAPONS/POINTING OR PRESENTING A FIREARM05/12/19902019A0220100372
11/19/2019MorrisJosephAndrew01/07/199326WM146 Ericka LnRidge SpringSCTELEPHONE/Unlawful Communication after 711/19/20192019A0220101100
11/14/2019FranksWilliamDallas11/18/197346WM1356 Landmark RdWillow SpringNCContempt of Municipal Court DOC10/17/20192019B0220100597
11/14/2019GrantLinzerJ P04/09/199128BM133 Riverbirch Dr Apt 4 BAikenSCASSAULT/Assault & Battery 3rd degree07/12/20192019B0220100599
11/13/2019WilliamsWesleyWayne06/23/199920WM13277 Church StWillistonSCBreach of Trust More than $2,000 but les10/10/20192019A0220101082
11/13/2019BadgerJaquil09/23/199425BM8070 Red Rock WayGranitevilleSCFINANCIAL TRANSACTION CARD FRAUD<$500 in11/02/20192019A0220101084
11/13/2019CouncilNathanThomas01/14/200019BM242 1/2 Cherokeet StAikenSCASSAULT/Assault & Battery 3rd degree05/03/20192019B0220100596
11/12/2019ButlerKeishaL11/06/197841BF32 Gregg StGranitevilleSCSHOPLIFTING, VALUE $2,000 OR LESS10/23/20192019A0220101079
11/10/2019YoungConellElijah05/06/198930BM224 Fairway Ridge RdAikenSCWEAPONS/Sale, delivery of pistol to,and11/10/20192019A0220101070
11/10/2019HardenRickyLorenzo01/21/199326BM227 Kershaw St NeAikenSCDUS / Driving under suspension, license11/08/20192019A0220101072
11/10/2019HardenRickyLorenzo01/21/199326BM227 Kershaw St NeAikenSCFail to Comply With Order of PSO11/08/20192019A0220101073
11/10/2019RoseJoshuaEugene01/20/198633WM35 Gregg StGranitevilleSCDrugs / Possession of less than one gram11/10/20192019A0220101075
11/08/2019MarshallRachelNicole05/08/198237BF417 Iawana DrGlovervilleSCASSAULT/Assault & Battery 3rd degree11/08/20192019A0220101058
11/07/2019SolomonJeremyAdam11/19/197841WM372 Red Tip LaneAikenSCDUI 1st - No Breath Alcohol Test07/09/20192019B0220100581
11/07/2019RussellEricJermaine04/23/199029BM3301 Trotter Run CtAikenSCOperating/Allow Operation Uninsured MV09/01/20182019B0220100582
11/07/2019RussellEricJermaine04/23/199029BM3301 Trotter Run CtAikenSCDUS 2nd,/Driving under suspension, licen09/01/20182019B0220100583
11/07/2019BlockerOctaviaMonique05/30/199326BF155 Weaver StAikenSCContempt of Municipal Court DUS 3RD09/26/20192019B0220100584
11/07/2019BlockerOctaviaMonique05/30/199326BF155 Weaver StAikenSCContempt of Municipal Court FAIL TO SURR09/26/20192019B0220100585
11/07/2019HamiltonNathan12/04/197544BM455 Water Oak DrWindsorSCDUS 1st /Driving under suspension, lice06/15/20192019A0220100502
11/06/2019WilliamsShawanaMonique02/23/198336BF405 Seastrunk StreetGranitevilleSCShoplifting 3rd or Sub./ Value $2000 or11/06/20192019A0220101049
11/05/2019DavenportTomazMandell05/02/198435BM132 Dean RoadSaludaSCDUS / Driving under suspension, license06/15/20192019B0220100576
11/05/2019DavenportTomazMandell05/02/198435BM132 Dean RoadSaludaSCDUI 1st - REFUSE06/15/20192019B0220100577
11/03/2019GoodwinHeikeWesthal08/22/195960WF159 Carline RdGlovervilleSCTraffic / Failure to stop for a blue lig11/03/20192019A0220101038
11/03/2019GoodwinHeikeWesthal08/22/195960WF159 Carline RdGlovervilleSCShoplifting / Value $2000 or less (Enhan11/03/20192019A0220101039
11/02/2019BurrisArnoldMcKinley07/05/195267BM518 Monetta Street SeAikenSCOperating/Allow Operation Uninsured MV08/25/20192019A0220101033
11/02/2019BurrisArnoldMcKinley07/05/195267BM518 Monetta Street SeAikenSCFailure to Surrender Suspended Tag08/25/20192019A0220101034
11/02/2019BurrisArnoldMcKinley07/05/195267BM518 Monetta Street SeAikenSCDUS / Driving under suspension, license08/25/20192019A0220101035
11/02/2019BurrisArnoldMcKinley07/05/195267BM518 Monetta Street SeAikenSCProviding False Info to PSO CITY ORDINAN08/25/20192019A0220101036
10/29/2019SelbyMichaelThomas07/24/198732BM347 Union St NeAikenSCContempt of Municipal Court DUS 2nd09/21/20192019B0220100560
10/29/2019SelbyMichaelThomas07/24/198732BM347 Union St NeAikenSCContempt of Municipal Court Leaving the09/21/20192019B0220100561
10/29/2019SimmonsDamienRahmel05/05/198237BM1207 Aldrich StAikenSCASSAULT/Assault & Battery 3rd degree10/29/20192019A0220101018
10/29/2019SimmonsDamienRahmel05/05/198237BM1207 Aldrich StAikenSCLarceny / Petit or Simple Larceny - $2,010/29/20192019A0220101019
10/29/2019Scott JrJohnnyWiley02/17/198336WM121 Barrett StWarrenvilleSCALCOHOL/Open Container Beer09/03/20192019B0220100563
10/29/2019OgletreeDominiqueDeon04/27/198930BM304 Freiday Lane NwAikenSCFAIL TO COMPLY08/14/20192019B0220100564
10/29/2019OgletreeDominiqueDeon04/27/198930BM304 Freiday Lane NwAikenSCDISORDERLY ORDERLY CONDUCT08/14/20192019B0220100565
10/29/2019Green JrMarkSteven08/22/199623BM756 Crossroads Park DrAikenSCNo Driver's License (1st Offense)09/06/20192019B0220100566
10/29/2019Green JrMarkSteven08/22/199623BM756 Crossroads Park DrAikenSCTraffic / Operating vehicle on highway w02/07/20192019B0220100567
10/28/2019AndersonMeganDanielle01/27/199425WF306 Talatha StNew AikenSCDISORDERLY CONDUCT08/25/20192019B0220100553
10/27/2019AlbertsonWilliamLee01/01/1753266WM915 Fallaw RdGastonSCFAILURE TO STOP FOR BLUE LIGHT/SIREN, NO10/27/20192019A0220101013
10/27/2019AlbertsonWilliamLee01/01/1753266WM915 Fallaw RdGastonSCMalicious injury to real property $200010/27/20192019A0220101014
10/24/2019RhodesDanteMackquise07/13/199821BM303 Smith Ave.New EllentonSCWeapons/UNLAWFUL CARRYING OF PISTOL10/23/20192019A0220100995
10/24/2019ButlerKeishaL11/06/197841BF227 Cherokee St S EAikenSCFAILURE TO STOP FOR BLUE LIGHT/SIREN, 1S10/23/20192019A0220100996
10/24/2019ButlerKeishaL11/06/197841BF227 Cherokee St S EAikenSCFailure to Comply10/23/20192019A0220100997
10/24/2019ButlerKeishaL11/06/197841BF32 Gregg StGranitevilleSCChild Endangerment10/23/20192019A0220100998
10/24/2019ButlerKeishaL11/06/197841BF32 Gregg StGranitevilleSCChild Endangerment10/23/20192019A0220100999
10/24/2019ButlerKeishaL11/06/197841BF32 Gregg StGranitevilleSCLeaving the Scene of Accident Involving10/23/20192019A0220101002
10/23/2019WilliamsRichardDean01/18/198930BM310 Freiday LnAikenSCDomestic / Domestic Violence, 2nd degree10/23/20192019A0220100993
10/22/2019RobinsonAustinAbree10/12/199524BM3 Kendrick CtTrentonSCTRESPASSING/UNLAWFUL ENTRY TO ENCLOSED P02/28/20192019B0220100542
10/22/2019RobinsonAustinAbree10/12/199524BM3 Kendrick CtTrentonSCMalicious injury to real property $200002/28/20192019B0220100543
10/22/2019DavisVelvetRenee11/11/198435BF792 Sommers St NeAikenSCDUS 1st02/06/20192019B0220100544
10/22/2019DavisVelvetRenee11/11/198435BF792 Sommers St NeAikenSCReturn of suspended, cancelled, or revok02/06/20192019B0220100545
10/22/2019RobinsonAustinAbree10/12/199524BM3 Kendrick CtTrentonSCTRESPASSING/UNLAWFUL ENTRY TO ENCLOSED P02/28/20192019B0220100546
10/22/2019DavisVelvetRenee11/11/198435BF792 Sommers St NeAikenSCOperating/Allow Operation Uninsured MV02/06/20192019B0220100547
10/22/2019PashaMichaelLamar09/01/198831BM113 Palmetto AveNorth AugustaSCMalicious Injury to animals, personal pr04/19/20192019B0220100551
10/17/2019GrissomCarl09/28/199227BM810 Hamptom AveAikenSCASSAULT/Assault & Battery 2nd degree10/16/20192019A0220100978
10/17/2019GrissomCarl09/28/199227BM810 Hamptom AveAikenSCASSAULT/Assault & Battery 2nd degree10/16/20192019A0220100980
10/14/2019JeffersonBrandonD.12/29/198434BM101 Hollow Tree Apt CAikenSCDUI 1st - Breath Alcohol Test < 0.10%04/30/20192019B0220100533
10/14/2019DawkinsEzachias07/15/197841BM1200 West Martintown RdNorth AugustaSCDUS 2nd,/Driving under suspension, licen04/09/20192019B0220100534
10/13/2019SpannStefanoAl09/05/198633BM376 Gregory RdAIKENSCASSAULT/Assault & Battery 3rd degree10/13/20192019A0220100969
10/10/2019HamptonDaiqonMarquise01/22/199425BM1354 Hampton AvenueAikenSCASSAULT/Assault & Battery 3rd degree10/09/20192019A0220100961
10/10/2019SimpkinsMarqual05/05/199821BM630 Aldrich St Apt 7cAikenSCContempt of Municipal Court Malicious In07/14/20192019B0220100531
10/10/2019BartonJoseph12/27/197048WM640 Hampton CirNorth AugustaSCContempt of Municipal Court SPOM07/04/20192019B0220100532
10/08/2019IsaacJamesOtis05/16/196554BM1170 Abbeville Ave NwAikenSCSHOPLIFTING, VALUE $2,000 OR LESS10/08/20192019A0220100953
10/06/2019SelbyMichaelThomas07/24/198732BM347 Union St NeAikenSCFailure to Comply with a PSO10/05/20192019A0220100941
10/06/2019SelbyMichaelThomas07/24/198732BM347 Union St NeAikenSCDUS / Driving under suspension, license10/05/20192019A0220100943
10/06/2019CheathamSirgeoA05/04/198237BM624 Outing Club RdAikenSCDUS 1st /Driving under suspension, lice10/05/20192019A0220100945
10/05/2019SelbyMichaelThomas07/24/198732BM347 Union St NeAikenSCFAILURE TO STOP FOR BLUE LIGHT/SIREN, NO10/05/20192019A0220100939
10/02/2019ByarsAndreaRiccardo01/17/197643BM30 Porter StWillistonSCDUS 2nd,/Driving under suspension, licen04/14/20192019B0220100513
10/02/2019ByarsAndreaRiccardo01/17/197643BM30 Porter StWillistonSCFail to Comply With Order of PSO04/14/20192019B0220100514
10/02/2019ByarsAndreaRiccardo01/17/197643BM30 Porter StWillistonSCDRUGS/Simple Possession Marijuana 28g1st04/14/20192019B0220100515
10/02/2019WilliamsBrandonOdairy07/03/198633BM219 Marlobor St N EAikenSCDUS 2nd01/07/20192019B0220100516
10/01/2019JacksonMichaelWayne08/20/197049BM104 Crawford StRidge SpringSCLarceny/Fail to return rented objects, f09/17/20192019A0220100934
09/30/2019BoydLesaiRochelle07/10/199128BF139 Myrtle RdSaludaSCDUI 1st - Breath Alcohol Test < 0.10%09/16/20182019B0220100510
09/29/2019NeubieRayvisDemitrus05/25/200118BM179 Nautilis StAikenSCTRESPASSING/Entering premises after warn09/29/20192019A0220100929
09/24/2019PhillipsTiffany03/29/197049WF1614 Silver Bluff RdAikenSCShoplifting / Value $2000 or less (Enhan09/22/20192019A0220100900
09/24/2019AllenTyshawn10/15/199821BM112 Long Meadow RdTaylorsSCDRUGS/Simple Possession Marijuana07/05/20192019B0220100502
09/24/2019HunterVinsonCheveil03/08/199029BM505 13st Street Apt B11AugustaGASHOPLIFTING, VALUE $2,000 OR LESS06/21/20192019B0220100503
09/24/2019HarleyAllisonMonique11/22/198633BF115 Cape Fox CirAikenSCDUS 2nd,/Driving under suspension, licen12/11/20172019B0220100504
09/20/2019MinnickHenryLamont02/07/200118BM617 Shiloh Heights RoadAikenSCSchool / Nonstudent interfering, disrupt09/10/20192019A0220100884
09/18/2019BrownRickAntonio11/21/198435BM159 East Pine Log RdAikenSCDUS / 2nd offense07/03/20192019B0220100496
09/18/2019GreenDujuanGermaine05/10/198930BM434 Community DrAikenSCMalicious injury to real property $200005/01/20192019B0220100497
09/17/2019LewkowiczJackJohn04/05/195564WM484 Crystal Peak RdGranitevilleSCSHOPLIFTING, VALUE $2,000 OR LESS03/19/20192019A0220100875
09/16/2019RiversMauriceZyaire07/02/199821BM126 Dovetail LaneBlackvilleSCContempt of Municipal Court SHOPLIFTING06/19/20192019B0220100493
09/16/2019RiversMauriceZyaire07/02/199821BM126 Dovetail LaneBlackvilleSCContempt of Municipal Court TRESPASSING06/19/20192019B0220100494
09/16/2019HuggingJaylinJoseph04/23/200118BM155 Horry NeAikenSCTRESPASSING/Entering premises after warn06/12/20182019B0220100495
09/14/2019SimsChristopherRalph03/07/198930BM1048 Nottingham DrSumterSCShoplifting / Value more than $2,000 and09/04/20192019A0220100863
09/12/2019RainesTandaBernise07/11/198039WF20 Cleveland RdJohnstonSCDrugs / Trafficking in meth or cocaine b09/12/20192019A0220100851
09/12/2019RainesTandaBernise07/11/198039WF20 Cleveland RdJohnstonSCDRUGS/UNLAWFUL POSS,DISPOSE or DISTRIBUT09/12/20192019A0220100852
09/12/2019RainesTandaBernise07/11/198039WF20 Cleveland RdJohnstonSCDrugs / Poss. of 28g (1 oz) or less of m09/12/20192019A0220100853
09/12/2019RainesTandaBernise07/11/198039WF20 Cleveland RdJohnstonSCDrugs / Poss. of narc. in Schedule I(b),09/12/20192019A0220100855
09/11/2019ParkerKennethEdward01/07/197544WM409 Duncan RdWarrenvilleSCContempt of Municipal Court Shoplifting08/09/20192019B0220100492
09/09/2019WilliamsTarikMalik08/21/199524BM358 Mount Pleasant RdRidge SpringSCDRUGS/Simple Possession Marijuana12/11/20182019B0220100487
09/05/2019HardenRickyLorenzo01/21/199326BM227 Kershaw St NeAikenSCFail to Comply With Order of PSO09/04/20192019A0220100805
09/05/2019IngramHenry08/09/196158BM505 Atomic RoadJacksonSCShoplifting <$2000 or less 3rd or subseq08/04/20192019A0220100806
09/04/2019ThomasAlexanderClayton01/14/198336WM9346 Brooks Cluster CircleUppervilleVAMalicious Injury to animals, personal pr07/07/20192019A0220100802
09/03/2019AbneyCieraShawnte03/17/198930BF20 Blackhorse RdParadisePADISORDERLY CONDUCT06/16/20192019B0220100480
09/03/2019ValentineOctaviaAlisha09/22/199524BF221 Stone DrAikenSCDUS/DUS not suspended for DUI 3rd or sub03/17/20182019B0220100482
09/03/2019McMasterNicholasRobert08/18/200118WM596 Timber Chase LnAikenSCDRUGS/Simple Possession Marijuana10/29/20182019B0220100483
09/03/2019McMasterNicholasRobert08/18/200118WM596 Timber Chase LnAikenSCFail to Comply With Order of PSO10/29/20182019B0220100484
09/02/2019IngramHenry08/09/196158BM311 JACKSON ROADJACKSONSCShoplifting / Value $2000 or less (Enhan09/02/20192019A0220100792
08/27/2019DunbarAaronBarnette10/26/198930BM241 Marie StWillistonSCDRUGS/Simple Possession Marijuana01/06/20192019B0220100477
08/27/2019DuttlingerGregoryMichael08/01/198237WM117 Redbud RdNorth AugustaSCDUS / 2nd offense07/22/20192019B0220100478
08/26/2019LylesTommyLee08/12/197940WM3974 High Rock RdGibsonNCContempt of Municipal Court DUI07/10/20192019B0220100472
08/22/2019WootenAngelaL Boatwright11/09/196455WF103 Apache DrWarrenvilleSCSHOPLIFTING, VALUE $2,000 OR LESS08/09/20182019B0220100462
08/22/2019JohnsonTyrone11/07/197247BM265 Dupont Drive NwAIKENSCContempt of Municipal Court for Shoplift07/19/20192019B0220100466
08/22/2019ReddingBarryJ02/14/198336BM395 Gregory RdAikenSCDUS 1st /Driving under suspension, lice05/31/20192019B0220100467
08/22/2019McLaurinPalmer04/25/199227WF306 Candy LnSummervilleSCDUS / Driving under suspension, license03/14/20192019B0220100468
08/20/2019ThomasEugeniaFinny09/19/196455B532 Hampton Ave Apt AAikenSCLarceny / Petit or Simple Larceny - $2,010/31/20182019B0220100461
08/20/2019WoodsJoshuaJonta02/17/199425BM7582 Saybrook TrailJonesboroGASHOPLIFTING, VALUE $2,000 OR LESS08/20/20192019A0220100742
08/15/2019SandersMichaelSteven07/06/199722WM655 Talatha Church RoadAikenSCFail to Comply With Order of PSO08/15/20192019A0220100723
08/14/2019DornDariusMichael10/19/199722BM810 Brandt Court Apt. BAikenSCDomestic / Domestic Violence, 1st degree08/13/20192019A0220100713
08/13/2019JarrardRoyThomas12/16/195563WM261 Myrtle StreetGlovervilleSCSHOPLIFTING, VALUE $2,000 OR LESS04/25/20192019B0220100456
08/11/2019LewkowiczJackJohn04/05/195564WM484 Crystal Peak RdGranitevilleSCSHOPLIFTING 1ST VALUE $2,000 OR LESS08/09/20192019A0220100708
08/06/2019IngramDrashawntKatrious12/04/200118BM820 Lincoln AvenueAikenSCContempt of Municipal Court Gross Intox05/13/20192019B0220100448
08/06/2019McCormickStephanie10/01/197841WF216 Sizemore AveNew EllentonSCDUS 1st /Driving under suspension, lice05/28/20192019B0220100450
08/06/2019McCormickStephanie10/01/197841WF216 Sizemore AveNew EllentonSCFail to Transfer /Use of license plate o05/28/20192019B0220100451
08/06/2019IslarQuishonAdarius10/08/199425BM550 Newberry StAikenSCMalicious injury to real property $200008/06/20192019A0220100689
08/01/2019OgdenBrittanyAnn03/31/198732WF148 Vine StAikenSCNo Proof Of Insurance04/26/20192019B0220100442
08/01/2019OgdenBrittanyAnn03/31/198732WF148 Vine StAikenSCDUS 2nd,/Driving under suspension, licen04/26/20192019B0220100443
07/31/2019WilliamsPhillipTyrone12/11/198336BM335 Kelly StWillistonSCDUS 1st /Driving under suspension, lice04/05/20192019B0220100437
07/31/2019MortonGjervernTremayne10/29/198039BM2925 Pickens AveAikenSCFail to Transfer /Use of license plate o02/23/20192019B0220100438
07/31/2019MortonGjervernTremayne10/29/198039BM2925 Pickens AveAikenSCFail to Register MV/Operating or permitt02/23/20192019B0220100439
07/31/2019MortonGjervernTremayne10/29/198039BM2925 Pickens AveAikenSCOperating/Allow Operation Uninsured MV02/23/20192019B0220100440
07/31/2019MortonGjervernTremayne10/29/198039BM2925 Pickens AveAikenSCDUS 1st /Driving under suspension, lice02/23/20192019B0220100441
07/30/2019ShannonChasity06/13/197940BF2121 Shamrock DrAugustaGASHOPLIFTING, VALUE $2,000 OR LESS07/27/20192019A0220100671
07/29/2019WilliamsCatilinBeth02/05/198831WF335 Kelly StWillistonSCDRUGS/Simple Possession Marijuana04/05/20192019B0220100434
07/29/2019WashingtonJamesWilliam05/03/196554BM910 Alfred Street N EAikenSCASSAULT/Assault & Battery 3rd degree06/11/20192019B0220100435
07/29/2019ReedJenniferR03/04/197445BF88 Nottingham Rd Apt 123WillistonSCNo Driver's License (1st Offense)06/02/20192019B0220100436
07/26/2019WestTimothyJames12/06/197643WM4738 Edmund HwyWest ColumbiaSCSHOPLIFTING, VALUE $2,000 OR LESS07/23/20192019A0220100655
07/25/2019DavisJohnAllen10/17/196752WM309 Carpenter StWest ColumbiaSCLarceny / Grand Larceny, value $10,000 o07/12/20192019A0220100645
07/25/2019DavisJohnAllen10/17/196752WM309 Carpenter StWest ColumbiaSCBurglary / Safecracking07/12/20192019A0220100646
07/25/2019DavisJohnAllen10/17/196752WM309 Carpenter StWest ColumbiaSCPetit or Simple Larceny- $2,000 OR LESS07/19/20192019A0220100647
07/25/2019DavisJosephAnthony12/23/196355WM309 Carpenter StWest ColumbiaSCBurglary / Safecracking07/12/20192019A0220100648
07/25/2019DavisJosephAnthony12/23/196355WM309 Carpenter StWest ColumbiaSCLarceny / Grand Larceny, value $10,000 o07/12/20192019A0220100649
07/25/2019DavisJosephAnthony12/23/196355WM309 Carpenter StWest ColumbiaSCPetit or Simple Larceny- $2,000 OR LESS07/19/20192019A0220100650
07/23/2019CorseyTavioMaurice12/19/197444BM940 Croft Av NeAikenSCDUS 1st10/18/20182019B0220100426
07/18/2019MosleyRakeemTyree Latrez01/15/199326BM117 Chatfield StAikenSCDUS 1st02/25/20192019B0220100415
07/18/2019MosleyRakeemTyree Latrez01/15/199326BM117 Chatfield StAikenSCDRUGS/Simple Possession Marijuana02/25/20192019B0220100416
07/13/2019CoatesJamesIkeen06/13/199029BM1457 Aldrich StAikenSCProviding False Info to PSO CITY ORDINAN06/23/20192019A0220100593
07/13/2019CoatesJamesIkeen06/13/199029BM1457 Aldrich StAikenSCNo Proof Of Insurance06/23/20192019A0220100594
07/13/2019CoatesJamesIkeen06/13/199029BM1457 Aldrich StAikenSCDUS / Driving under suspension, license06/23/20192019A0220100595
07/13/2019CoatesJamesIkeen06/13/199029BM1457 Aldrich StAikenSCTraffic/Motor Vehicle Registration and06/23/20192019A0220100596
07/11/2019RaifordTrevariousJermard04/10/199425BM528 Hampton Ave N EAikenSCACCESSORY AFTER THE FACT/FELONY03/24/20192019A0220100585
07/09/2019NipperShahimRashawn10/30/199920BM125 Marvin DrAikenSCSimple Possession Marijuana01/10/20182019B0220100403
07/09/2019FelderBettyAnn09/10/196554BF1035 Pinecrest AveAikenSCNo Driver's License (1st Offense)04/01/20192019B0220100406
07/09/2019FelderBettyAnn09/10/196554BF1035 Pinecrest AveAikenSCTraffic / Driving on roadways laned Dri04/01/20192019B0220100407
07/04/2019ButlerTrevonLarenz08/01/199425BM227 Cherokee StAikenSCDUS / Driving under suspension, license07/03/20192019A0220100556
07/04/2019ButlerTrevonLarenz08/01/199425BM227 Cherokee StAikenSCFAILURE TO STOP FOR BLUE LIGHT/SIREN, NO07/03/20192019A0220100557
07/04/2019ButlerTrevonLarenz08/01/199425BM227 Cherokee StAikenSCTraffic/Vehicle License Improper07/03/20192019A0220100558
07/01/2019RouseTerryMezak06/14/198534BM656 Woodyard Rd Apt 3TrentonSCFail to Comply With Order of PSO05/03/20192019B0220100382
06/29/2019DraytonEddieDontrel09/24/199029BM145 Sumter St N EAikenSCMalicious Injury to animals, personal pr06/28/20192019A0220100542
06/29/2019CummingsJermaine12/25/198434BM310 W Hugh St Apt 405North AugustaSCTELEPHONE/Unlawful Communication after 706/28/20192019A0220100543
06/27/2019GoetzmanChristyAnne01/16/199722WF224 Midway CirAikenSCLarceny / Petit or Simple Larceny - $2,006/20/20192019A0220100537
06/25/2019MoseleyLouieRudolph11/07/195663WM1145 Carriage DriveAIKENSCTRESPASSING/Entering premises after warn04/09/20192019B0220100373
06/25/2019Jackson JrDonaldFitzgerald08/09/199128BM214 Boyd Branch RdSaludaSCDUS 2nd,/Driving under suspension, licen02/09/20192019B0220100374
06/25/2019Jackson JrDonaldFitzgerald08/09/199128BM214 Boyd Branch RdSaludaSCDisorderly / Public disorderly conduct02/09/20192019B0220100375
06/24/2019HeardEricElon04/10/198732BM315 Grandiflora CircleAikenSCHarassment / 2nd degree Harassment08/25/20182019B0220100366
06/24/2019HeardEricElon04/10/198732BM315 Grandiflora CircleAikenSCTELEPHONE/Unlawful Communication after 708/22/20182019B0220100367
06/24/2019EcholsTerrell08/22/199326BM49 Dry Branch RdAikenSCDUS 2nd,/Driving under suspension, licen04/19/20182019B0220100370
06/24/2019EcholsTerrell08/22/199326BM49 Dry Branch RdAikenSCNo Driver's License (1st Offense)05/26/20182019B0220100371
06/24/2019HolmesMarceleDieon09/02/199425BM654 Horry St N EAikenSCDomestic / Domestic Violence, 2nd degree06/24/20192019A0220100528
06/20/2019CourtneyMoneshiaT01/07/199425BF4060 Sandlapper Apt 2001AikenSCDUS 2nd,01/23/20192019B0220100364
06/19/2019BakerKhalilMalik Ali06/25/199821BM1 Nancy Ln Se Aptb BAikenSCDUS 1st03/26/20192019B0220100363
06/18/2019WoodDanny06/26/199722BM601 Taylor StreetAugustaGALarceny / Petit or Simple Larceny - $2,006/13/20192019A0220100507
06/18/2019BuxtonSherilynD09/30/196752BF9084 Sc Highway 39WillistonSCOperating/Allow Operation Uninsured MV12/02/20182019B0220100354
06/17/2019IngramDrashawntKatrious12/04/200118BM820 Lincoln AvenueAikenSCMalicious Injury to animals, personal pr04/26/20192019B0220100353
06/17/2019HamiltonNathan12/04/197544BM455 Water Oak DrWindsorSCFAILURE TO STOP FOR BLUE LIGHT/SIREN, NO06/17/20192019A0220100506
06/15/2019HamiltonNathan12/04/197544BM455 Water Oak DrWindsorSCFail to Comply With Order of PSO06/15/20192019A0220100503
06/13/2019CobbsCynthiaAndrea01/13/197148BF727 Washington CircleAikenSCDUS 1st02/23/20192019B0220100348
06/12/2019SummersShawnDanner11/18/199821WM138 Glencarin DriveAikenSCTRESPASSING/Entering premises after warn05/16/20192019B0220100347
06/11/2019ByarsAndreaRiccardo01/17/197643BM30 Porter StWillistonSCDUS 2nd,/Driving under suspension, licen03/19/20192019B0220100343
06/11/2019RauchMichaelJacobie11/28/198336BM1450 Broad StLeesvilleSCDUI 1st - .1003/23/20192019B0220100344
06/11/2019HollowayJeremyMarquise05/09/198831BM113 Hampton AveAikenSCDRUGS/Simple Possession Marijuana03/24/20192019B0220100345
06/04/2019AlexanderVictoriaLee11/03/198138WF2098 Edgefield HwyAikenSCDUS 1st /Driving under suspension, lice02/03/20192019B0220100323
06/03/2019McKevieTroyAvery12/29/199325BM32 Kimberly Acres DrJacksonSCFail to Comply With Order of PSO03/12/20192019B0220100314
06/03/2019JohnsonSanieta11/14/199524BF417 Plunkett StAikenSCDUS 1st /Driving under suspension, lice03/19/20192019B0220100315
06/03/2019CarterAntonioDamon01/08/199821BM403 Lake Shore DrAikenSCSHOPLIFTING, VALUE $2,000 OR LESS05/20/20172019B0220100317
06/01/2019SimmonsMalcolmLeroyce09/10/198039BM3041 Appleseed LaneAikenSCDomestic / Domestic Violence, 2nd degree06/01/20192019A0220100452
05/30/2019BoatwrightBlakeNathanul05/05/199128WM205 Boone RdOrangeburgSCDUS 1st /Driving under suspension, lice05/30/20192019A0220100445
05/30/2019BoatwrightBlakeNathanul05/05/199128WM205 Boone RdOrangeburgSCLarceny / Petit or Simple Larceny - $2,005/30/20192019A0220100446
05/29/2019TubazzahDecostaMyshada01/05/197346BM270 Whispering Pines TerAikenSCSHOPLIFTING, VALUE $2,000 OR LESS06/09/20182019B0220100306
05/26/2019PennTyreeMaurice08/08/199524BM120 Sandy Springs Ln Lot 4LexingtonSCDomestic / Domestic Violence, 2nd degree05/26/20192019A0220100432
05/23/2019SterlingJayWilliam Arthur12/09/197940WM4309 Edisto RdAikenSCNo Driver's License (1st Offense)02/02/20192019B0220100300
05/21/2019GloverPaulDouglas02/11/199227BM1101 Glenn Arbor CircuitAikenSCDUS 2nd,/Driving under suspension, licen02/01/20192019B0220100290
05/21/2019GloverPaulDouglas02/11/199227BM1101 Glenn Arbor CircuitAikenSCTraffic / Operating vehicle on highway w02/01/20192019B0220100291
05/21/2019MorrisLorettaMichelle08/24/199821WF164 Main StJacksonSCProviding False Info to PSO CITY ORDINAN06/23/20182019B0220100294
05/21/2019BooneRichardLewis07/20/196356WM463 Rushton RdAikenSCDUS 1st /Driving under suspension, lice03/25/20192019B0220100295
05/20/2019ArdNickeyLee02/03/200019WM717 Winged Foot DrAikenSCBREACH / Breach of trust with fraudulent05/18/20182018A0220100406
05/19/2019ParkerJustinSamuel07/27/199128WM295 Howlandville RoadWarrenvilleSCSHOPLIFTING, VALUE $2,000 OR LESS05/19/20192019A0220100395
05/19/2019ParkerJustinSamuel07/27/199128WM295 Howlandville RoadWarrenvilleSCDUS / Driving under suspension, license05/19/20192019A0220100396
05/16/2019CarrollRichardRockeakos04/20/200118BM811 Laurens St N WAikenSCLarceny / Petit or Simple Larceny - $2,002/12/20192019B0220100276
05/16/2019WilliamsRavenSamone01/11/199524BF3303 Vaucluse RdAikenSCSHOPLIFTING, VALUE $2,000 OR LESS02/28/20192019B0220100282
05/16/2019Nolasco-RiveraLuisArcangel11/11/199821WM1038 Carriage Dr Apt AAikenSCDRUGS/Simple Possession Marijuana03/05/20192019B0220100284
05/14/2019DawkinsColieDee11/13/198336BM1005 Kalmia Apt LnGranitevilleSCNo Driver's License (1st Offense)04/02/20192019B0220100272
05/13/2019BerrianJimmy Lee01/04/199029BM1916 Richmond Ave Apt BAugustaGAASSAULT/Assault & Battery 1st degree05/12/20192019A0220100373
05/13/2019BerrianJimmy Lee01/04/199029BM1916 Richmond Ave Apt BAugustaGAWeapons/UNLAWFUL CARRYING OF PISTOL05/12/20192019A0220100374
05/13/2019BerrianJimmy Lee01/04/199029BM1916 Richmond Ave Apt BAugustaGADischarging F/Arm in City05/13/20192019A0220100375
05/11/2019GraysKimberly11/11/197346BF210 Cherokee St SeAikenSCASSAULT/Assault & Battery 3rd degree05/11/20192019A0220100369
05/11/2019CraftonAhmadMarquse06/02/198633BM199 Stanley CtLexingtonSCTraffic / Hit and run, att. vehicle, dut05/11/20192019A0220100370
05/08/2019WilliamsZmariTytiana01/14/199722BF32 Lisa StWillistonSCDRUGS/Simple Possession Marijuana08/02/20182019B0220100261
05/08/2019WilliamsZmariTytiana01/14/199722BF32 Lisa StWillistonSCDUS 1st08/02/20182019B0220100262
05/08/2019WilliamsZmariTytiana01/14/199722BF32 Lisa StWillistonSCGiving False Info08/02/20182019B0220100263
05/08/2019AblesJohnHenry11/22/199722BM109 Family Cir RdWagnerSCDRUGS/Simple Possession Marijuana10/06/20182018B0220100693
05/07/2019GoodwinJessieClarence04/08/197940WM3867 Hensley TdAugustaGANo Driver's License (1st Offense)01/16/20192019B0220100257
05/03/2019MiddletonLatoyaNicole12/21/198830BF811 Laurens St Nw Apt 2AikenSCASSAULT/Assault & Battery 3rd degree09/09/20182019A0220100346
05/02/2019HayGregLamont09/06/197544BM6000 Canvas Back Cir Apt 6204AikenSCNo Driver's License (1st Offense)12/19/20182019B0220100247
05/01/2019GonzalesChristopherEverett11/11/198237HM3173 Old Camp Long RdAikenSCTRESPASSING/Entering premises after warn02/23/20192019A0220100334
05/01/2019GonzalesChristopherEverett11/11/198237HM3173 Old Camp Long RdAikenSCDomestic / Violation of court order of p02/23/20192019A0220100335
05/01/2019CaveJamesRaymond10/31/197643BM483 Plunkett AveAIKENSCREPORT/Provide False Information to Law12/03/20182019B0220100238
05/01/2019Harris, IIIRoyLee03/17/198534B5 Westside DrClearwaterSCDUS 2nd,/Driving under suspension, licen11/13/20182019B0220100239
05/01/2019CarrollRichardRockeakos04/20/200118BM811 Laurens St N WAikenSCDisorderly/Public disorderly conduct10/16/20182019B0220100245
05/01/2019CarrollRichardRockeakos04/20/200118BM811 Laurens St N WAikenSCFail to Comply With Order of PSO10/16/20182019B0220100246
05/01/2019CuthbertsonDarryl07/02/198237BM206 Sw 13th AveDelray BeachFLDRUGS/Simple Possession Marijuana10/19/20182018B0220100672
04/25/2019RogersShannaMarie07/13/198336WF38 OAKWOOD DRGRAINTEVILLESCShoplifting / Value $2000 or less (Enhan04/21/20192019A0220100316
04/23/2019MorganHarry11/14/197544BM140 Cyndee Cr CtMartinezGASHOPLIFTING, VALUE $2,000 OR LESS01/16/20192019B0220100229
04/23/2019GreenCurtisAnthony08/30/198336BM2432 Willow Oak DriveColumbiaSCDRUGS/Simple Possession Marijuana01/06/20192019B0220100230
04/22/2019EppersonTishaunaNichole05/25/198336WF103 Keen AveNew EllentonSCProviding False Info to PSO CITY ORDINAN04/21/20192019A0220100296
04/17/2019FrazierEugene03/02/198831BM1263 George St N EAikenSCTRESPASSING/UNLAWFUL ENTRY TO ENCLOSED P01/10/20192019B0220100214
04/17/2019FrazierEugene03/02/198831BM1263 George St N EAikenSCTRESPASSING/Entering premises after warn01/10/20192019B0220100215
04/17/2019JacksonFrankJames07/02/198039BM829 D'antignacAugustaGATRESPASSING/Entering premises after warn11/26/20182019B0220100216
04/17/2019JacksonFrankJames07/02/198039BM829 D'antignacAugustaGADisorderly / Public disorderly conduct10/23/20182019B0220100217
04/17/2019JacksonFrankJames07/02/198039BM829 D'antignacAugustaGADRUGS/Simple Possession Marijuana10/23/20182019B0220100218
04/17/2019JacksonFrankJames07/02/198039BM829 D'antignacAugustaGATrespassing10/08/20182019B0220100219
04/17/2019BurroughsRobertBenjamin01/29/197742WM206 Fairway DrNew EllentonSCDUS 1st /Driving under suspension, lice12/19/20182019B0220100220
04/17/2019BurroughsRobertBenjamin01/29/197742WM206 Fairway DrNew EllentonSCTraffic / Operating vehicle on highway w12/19/20182019B0220100222
04/17/2019BurroughsRobertBenjamin01/29/197742WM206 Fairway DrNew EllentonSCReturn of suspended, cancelled, or revok12/19/20182019B0220100223
04/16/2019DooleyKathrynElizabeth07/27/197841WF111 Medwell HillAikenSCLarceny / Petit or Simple Larceny - $2,004/12/20192019A0220100284
04/13/2019HammondsShawn08/18/199821BF2195 Appleton RoadAllendaleSCSHOPLIFTING, VALUE $2,000 OR LESS04/12/20192019A0220100278
04/11/2019GreenDavidAntonio09/28/198237BM512 Camel StNew EllentonSCDUI 1st - No Breath Alcohol Test09/29/20182019B0220100197
04/09/2019BoydRussellJames Patton01/06/199326WM1015 Kipper CtAikenSCOperating/Allow Operation Uninsured MV01/28/20192019B0220100205
04/03/2019HarrisonSyndriaThomas08/12/197247BM133 Daniel Farm RdTrentonSCASSAULT/Assault & Battery 3rd degree12/05/20182019B0220100173
04/03/2019BaxleyMichaelKeith03/08/198831BM616 Kershaw St NeAikenSCDUS 1st /Driving under suspension, lice01/30/20192019B0220100174
04/03/2019PooleStephanAndree10/16/198138BM1113 Cooks Bridge RdAikenSCDUI 1st -01/12/20192019B0220100176
04/03/2019PooleStephanAndree10/16/198138BM1113 Cooks Bridge RdAikenSCDUS 1st /Driving under suspension, lice01/12/20192019B0220100177
04/03/2019PooleStephanAndree10/16/198138BM1113 Cooks Bridge RdAikenSCALCOHOL/Open Container Beer01/12/20192019B0220100178
04/01/2019JonesStevenA11/24/197643WM108 Westpointe CourtLexingtonSCBREACH / Breach of Trust / Fraudulent in04/01/20192019A0220100250
04/01/2019SmithVincentAubrey05/28/198831WM64 Mullins Dr.North AugustaSCSHOPLIFTING, VALUE $2,000 OR LESS12/23/20182019B0220100090
03/27/2019CroftJavonMaurice01/06/199821BM127 Alvin DrNorth AugustaSCDUS 2nd11/12/20182019B0220100156
03/27/2019DoyleJimmie03/28/196752BM245 Kershaw St. NeAikenSCASSAULT/Assault & Battery 3rd degree12/25/20182019B0220100157
03/20/2019BlockerCamronJerome09/24/199821BM1229 Hahn Ave N EAikenSCROBBERY/ WHILE ARMED W/DEADLY WEAPON03/20/20192019A0220100201
03/20/2019BlockerCamronJerome09/24/199821BM1229 Hahn Ave N EAikenSCWeapons / Poss of a weapon during commis03/20/20192019A0220100202
03/18/2019WhiteAhshiaElyese01/10/198930BF1039 Carriage Dr. Apt BAikenSCTHREAT/THREATENING A PUBLIC OFFICIAL, TE06/28/20182019B0220100142
03/14/2019SimmonsWhitneyNichole01/17/198831BF731 Morton AveAikenSCRECEIVING STOLEN GOODS $2,000 OR LESS08/17/20182019B0220100138
03/13/2019BrownBenardM05/18/198831BM1004 Foucan CtAikenSCNo Driver's License (1st Offense)12/01/20182019B0220100123
03/13/2019RobinsonStephanieElaine12/22/198038BF25 Harper Valley LnGranitevilleSCDUS 2nd,/Driving under suspension, licen04/30/20182019B0220100124
03/13/2019RobinsonStephanieElaine12/22/198038BF25 Harper Valley LnGranitevilleSCOperating/Allow Operation Uninsured MV04/30/20182019B0220100125
03/13/2019WilliamsJessicaLana04/21/198831BFP O Box 1455Aiken (Po)SCFAILURE TO SURRENDER SUS TAG09/03/20182019B0220100129
03/13/2019WilliamsJessicaLana04/21/198831BFP O Box 1455Aiken (Po)SCDUS 1st09/03/20182019B0220100130
03/13/2019WilliamsJessicaLana04/21/198831BFP O Box 1455Aiken (Po)SCOperating/Allow Operation Uninsured MV09/03/20182019B0220100131
03/13/2019MoisterNikkaliLyn04/05/200019WF1900 Wire RdAikenSCDRUGS/Simple Possession Marijuana05/06/20182019B0220100132
03/13/2019Vargas LasalleJustoL07/12/198732HM1200 West Martingtown Rd 301North AugustaSCNo Driver's License (1st Offense)11/07/20182019B0220100133
03/13/2019IngramLawrenceW12/02/198039WM132 Viceroy LnWarrenvilleSCSHOPLIFTING, VALUE $2,000 OR LESS09/21/20172019B0220100134
03/11/2019DobsonDangeloMarkel05/31/199623BM105 Sharyn LnAikenSCDOMESTIC/Domestic Violence 3 rd Degree M07/06/20162019B0220100121
03/11/2019SimmonsWhitneyNichole01/17/198831BF731 Morton AveAikenSCALCOHOL/Open Container Beer12/11/20182019B0220100122
03/11/2019BaxleyMichaelKeith03/08/198831BM616 Kershaw St NeAikenSCDUS/DUS not suspended for DUI 3rd or sub02/28/20192019A0220100173
03/07/2019CadeTerryMaurice03/05/198138BM3208 Seneca AvenueAikenSCASSAULT/Assault & Battery 2nd degree03/07/20192019A0220100152
03/07/2019WorkmanJasmineO07/14/199623BF7030 Corcoran CtBeech IslandSCSHOPLIFTING, VALUE $2,000 OR LESS10/31/20182019B0220100115
03/07/2019ElPersia10/18/198435BF1546 Hamilton Dr Apt 102AikenSCASSAULT/Assault & Battery 3rd degree03/07/20192019A0220100153
03/06/2019Peter ChemmalakuzhySaju05/25/197148IM501 Churchill CircleAikenSCBreach of Trust with Fraudulent Intent,03/06/20192019A0220100151
03/05/2019WilhelmPaulRussell03/20/196455WM1105 Elon StAikenSCDUI 1st - Breath Alcohol Test 0.08%08/08/20182019B0220100106
03/05/2019MyrickYesicaA04/08/197940HF1921 Newland Rd.CharlotteNCSHOPLIFTING, VALUE $2,000 OR LESS02/28/20192019A0220100150
03/01/2019AbsherBobbieJean09/27/198831WF151 Cadle Crossing RoadWindsorSCBREACH/ Breach of trust with fraudulent08/06/20182019B0220100099
03/01/2019AbsherBobbieJean09/27/198831WF151 Cadle Crossing RoadWindsorSCBREACH/ Breach of trust with fraudulent08/04/20182019B0220100100
03/01/2019AbsherBobbieJean09/27/198831WF151 Cadle Crossing RoadWindsorSCBREACH/ Breach of trust with fraudulent07/12/20182019B0220100101
02/20/2019FullerDerianDevon08/16/199227BM512 S Boundary AveNew EllentonSCKidnapping02/20/20192019A0220100119
02/20/2019FullerDerianDevon08/16/199227BM512 S Boundary AveNew EllentonSCUnlawful Conduct Toward a Child02/20/20192019A0220100120
02/20/2019FullerDerianDevon08/16/199227BM512 S Boundary AveNew EllentonSCDomestic / Domestic Violence, 2nd degree02/20/20192019A0220100121
02/12/2019GroggRobinAmanda05/08/198435WF54 Andover DriveGranitevilleSCShoplifting / Value $2000 or less (Enhan02/01/20192019A0220100105
02/11/2019ErvinMarquise01/31/199425BM2927 Abbeville AveAikenSCDRUGS/Simple Possession Marijuana11/14/20182019B0220100087
02/09/2019JacksonFrankJames07/02/198039BM829 D'antignacAugustaGATRESPASSING/Entering premises after warn02/08/20192019A0220100102
02/08/2019HarrisonAndrewTyrone12/19/198434BM1605 Easley Bridge RoadGreenvilleSCMURDER12/20/20182019A0220100098
02/07/2019CaletriJenniferNicole12/12/199029WF1963 Gray Mare HollowAikenSCDUS 1st /Driving under suspension, lice08/13/20182019B0220100077
02/07/2019SpiveyKearneyFioure07/15/196851BM501 Boy Scot RdAugustaGADUS 2nd09/24/20182019B0220100082
02/07/2019BrownWilliamLawrence12/18/196454BM122 WEAVER STREETAIKENSCDUS 1st /Driving under suspension, lice08/30/20182019B0220100084
02/07/2019BrownWilliamLawrence12/18/196454BM122 WEAVER STREETAIKENSCRECEIVING STOLEN GOODS $2,000 OR LESS08/30/20182019B0220100085
02/06/2019SimmonsWhitneyNichole01/17/198831BF731 Morton AveAikenSCDomestic / Domestic Violence, 3rd degree02/05/20192019A0220100088
02/06/2019SimmonsWhitneyNichole01/17/198831BF731 Morton AveAikenSCDisorderly / Public disorderly conduct02/05/20192019A0220100089
02/05/2019LivingstonDezmondTaquawn05/29/199722BM45 Sandy LnAikenSCBREACH/ Breach of trust with fraudulent12/03/20172019B0220100071
02/05/2019BloomerKimberlyDenise12/29/196949WF111 Jay StreetGranitevilleSCDUS 1st11/27/20182019B0220100072
02/05/2019JacksonDemetriusLamar04/09/198930BM129 S. Robinhood RdSavannahGAWeapons / Possession Weapon During Viole02/05/20192019A0220100086
02/05/2019JacksonDemetriusLamar04/09/198930BM129 S. Robinhood RdSavannahGAROBBERY/ ARMED WITH DEADLY WEAPON02/05/20192019A0220100087
01/31/2019GloverDyronLamont01/09/199029BM887 Lincoln AveAikenSCDrugs / Poss. of other controlled sub. i01/17/20192019A0220100050
01/31/2019GloverDyronLamont01/09/199029BM887 Lincoln AveAikenSCDrugs / Manuf., poss. of other sub. in S01/07/20192019A0220100052
01/30/2019MillardJackieLynn05/27/198930WF221 North Windsor RdWindsorSCSHOPLIFTING, VALUE $2,000 OR LESS08/31/20182019B0220100065
01/28/2019RosserKawanaNicole01/26/198237BF209 Bowie AveSaludaSCDUS 1st11/01/20182019B0220100063
01/28/2019ThomasMarquizeLamont11/05/199425BM241 Frontage RdAikenSCLarceny / Petit or Simple Larceny - $2,001/24/20192019A0220100074
01/24/2019TylerChiquitaAlah Nicole04/27/199821BF830 Brandt CtAikenSCBREACH/breach of trust with fraudulent i09/26/20172019B0220100060
01/23/2019BatesDemetriusDebin03/18/198732BM104 Collier StAikenSCNo SC Driver's Licens09/01/20182019B0220100056
01/23/2019BatesDemetriusDebin03/18/198732BM104 Collier StAikenSCDRUGS/Simple Possession Marijuana09/01/20182019B0220100057
01/23/2019MackArthurLee01/22/198435BM2522 Wire RdAikenSCDUS/ DUS 4TH Offense07/29/20182019B0220100058
01/21/2019GloverDyronLamont01/09/199029BM887 Lincoln AveAikenSCPWID MARIJUANA 1/2 MILE SCHOOL01/07/20192019A0220100045
01/21/2019GloverDyronLamont01/09/199029BM887 Lincoln AveAikenSCWEAPONS Possession by Certain Persons Un01/07/20192019A0220100047
01/21/2019GloverDyronLamont01/09/199029BM887 Lincoln AveAikenSCWEAPONS Possession by Certain Persons Un01/07/20192019A0220100048
01/15/2019JettRalishaKenae08/01/199722BF722 Douglas St Apt 2eCamdenSCSHOPLIFTING, VALUE $2,000 OR LESS MUST A07/06/20162019B0220100034
01/15/2019CapersKabria11/27/199722722 Douglas St Apt 2eCamdenSCSHOPLIFTING, VALUE $2,000 OR LESS MUST A07/06/20162019B0220100035
01/15/2019GloverDyronLamont01/09/199029BM887 Lincoln AveAikenSCASSAULT/Assault & Battery 3rd degree11/23/20182019B0220100036
01/10/2019DornDariusMichael10/19/199722BM810 Brandt Court Apt. BAikenSCASSAULT/Assault & Battery 3rd degree09/21/20182019B0220100027
01/09/2019Brown IIIDallasJackson05/14/198732BM3406 Roses RunAikenSCOperating/Allow Operation Uninsured MV10/31/20182019B0220100024
01/09/2019Brown IIIDallasJackson05/14/198732BM3406 Roses RunAikenSCDUS 1st /Driving under suspension, lice10/31/20182019B0220100025
01/09/2019DemilloTony08/08/197346WM6 Hollman StJayMISHOPLIFTING 1st11/15/20182019B0220100026
01/08/2019PressleyCatriceAddell03/09/199722BF291 Howlandville RdWarrenvilleSCDUS 1st /Driving under suspension, lice11/10/20182019B0220100014
01/08/2019OdomLarry10/05/195663BM1304 Grove BlvdNorth AugustaSCSOLICITING W/OUT PERMIT11/25/20052019B0220100015
01/08/2019OdomLarry10/05/195663BM1304 Grove BlvdNorth AugustaSCTRESPASSING/Entering premises after warn06/22/20182019B0220100016
01/07/2019RiskeEdwinTiler04/11/199722WM37 Ward CircleAikenSCDisorderly / Public disorderly conduct12/11/20182019B0220100008
01/07/2019RiskeEdwinTiler04/11/199722WM37 Ward CircleAikenSCDisorderly / Public disorderly conduct12/11/20182019B0220100010
01/05/2019JohnsonRoshandaLaynet01/09/197841BF3033 Old Powderhouse RoadAikenSCBREACH/breach of trust with fraudulent i09/04/20182019A0220100008
01/03/2019RiskeEdwinTiler04/11/199722WM37 Ward CircleAikenSCASSAULT/Assault & Battery 3rd degree12/11/20182019B0220100005
12/31/2018Johnson IIChristopher01/01/1753266BM343 Fairfield St NeAikenSCTELEPHONE/Unlawful Communication after 712/30/20182018A0220101058
12/21/2018DornDariusMichael10/19/199722BM810 Brandt Court Apt. BAikenSCASSAULT/Assault & Battery 3rd degree12/20/20182018A0220101026
12/13/2018StoneBrittneyD08/09/199623WF1033 Montgomery LaneColumbiaSCSHOPLIFTING, VALUE $2,000 OR LESS07/21/20182018B0220100678
12/13/2018EberhartMarlanaDanielle03/01/199128BF513 Lakeview RdNorth AugustaSCOperating/Allow Operation Uninsured MV08/17/20182018B0220100679
12/13/2018RossBrianOneal12/31/199127BM705 Maple StreetAikenSCBREACH/ Breach of trust with fraudulent12/17/20182018A0220101003
12/11/2018MooreRianaLesae06/29/200019WF5014 Clearbrick RdEffinghamSCSHOPLIFTING, VALUE $2,000 OR LESS03/21/20182018B0220100671
12/10/2018MorganNauticaJoyelle07/25/199623BF1213 E 60th StSavannahGAROBBERY/ ARMED WITH DEADLY WEAPON12/10/20182018A0220100996
11/27/2018SteedKimberlyLashawn11/06/198138BF2009 Tubman Home RdAugustaGANo SC Driver's License08/04/20182018B0220100632
11/27/2018SteedKimberlyLashawn11/06/198138BF2009 Tubman Home RdAugustaGANO VEHICLE LICENSE08/04/20182018B0220100633
11/26/2018OnealMariaLavern04/25/198534BF151 R J Johnson RdMartinSCDUS 2nd,/Driving under suspension, licen06/21/20182018B0220100627
11/26/2018OnealMariaLavern04/25/198534BF151 R J Johnson RdMartinSCEXPIRE TAG 2/1706/21/20182018B0220100628
11/26/2018OnealMariaLavern04/25/198534BF151 R J Johnson RdMartinSCProviding False Info to PSO CITY ORDINAN06/21/20182018B0220100629
11/21/2018HarrisChristopher11/14/199029BM149 Lickcreek CtLeesvilleSCDUS 3rd or Sub.03/01/20182018B0220100620
11/20/2018PatrickOrlandaKendrael09/14/198039BM112 Williams StRidge SpringSCOperating/Allow Operation Uninsured MV08/18/20182018B0220100607
11/20/2018HardenRobinAnnette01/06/197148WF416 York St N EAikenSCOperating/Allow Operation Uninsured MV09/12/20182018B0220100608
11/20/2018AlvarezOrtyevaC09/18/198237BM1916 Krather DriveAugustaGASHOPLIFTING, VALUE $2,000 OR LESS A03/16/20162018B0220100611
11/19/2018GrayMichaelBrandon01/28/197643WM2534 State Hwy 220 EastLincolntonGAMalicious Injury to Personal Property $211/19/20182018A0220100930
11/19/2018GrayMichaelBrandon01/28/197643WM2534 State Hwy 220 EastLincolntonGASafecracking11/19/20182018A0220100931
11/15/2018SimpkinsDevlinDovon01/28/199128BM221 Marlboro StAikenSCDUS/DUS 3rd or sub offense07/21/20182018B0220100596
11/15/2018SimpkinsDevlinDovon01/28/199128BM221 Marlboro StAikenSCDUS/DUS 3rd or sub offense07/21/20182018B0220100597
11/15/2018WilesJohnnySteven02/27/196356WM722 Rollingwood Rd WestAikenSCSHOPLIFTING, VALUE $2,000 OR LESS05/20/20182018B0220100598
11/15/2018WilesJohnnySteven02/27/196356WM722 Rollingwood Rd WestAikenSCSHOPLIFTING, VALUE $2,000 OR LESS05/20/20182018B0220100599
11/15/2018CoachTaquanDewayne10/11/199425BM3 WatterlooAikenSCDUS 1st /Driving under suspension, lice07/25/20182018B0220100600
11/13/2018DoeXarviaMarqus09/12/198831BM113 Ashmore DriveBeech IslandSCOperating/Allow Operation Uninsured MV07/29/20182018B0220100581
11/08/2018LedbetterChristinaMarie04/24/197445WF603 Firewood LaneWarrenvilleSCSHOPLIFTING, VALUE $2,000 OR LESS05/12/20182018B0220100578
11/07/2018BrownLatashaShandella07/02/197742BF201 Reid DrAikenSCBREACH/ Breach of trust with fraudulent10/05/20182018A0220100859
11/07/2018ReedAngelenaShameca09/14/197643BF1200 W Martintown Rd Apt 603North AugustaSCSHOPLIFTING, VALUE $2,000 OR LESS A10/13/20152018B0220100574
11/07/2018ReedAngelenaShameca09/14/197643BF1200 W Martintown Rd Apt 603North AugustaSCSimple Possession Marijuana MUST APPEAR10/26/20152018B0220100575
11/01/2018TempleRonaldW07/20/197742WM71 Downing St.ColumbiaSCFail to Comply With Order of PSO06/04/20182018B0220100565
11/01/2018FleglerShalondaLavita02/03/199326BF3609 Morton AveAikenSCDUS 1st /Driving under suspension, lice09/06/20182018B0220100566
11/01/2018HollowayKendraShartee10/13/198930BF1654 Troy West RdMc CormickSCDUS/DUS 3RD not suspended for DUI 3rd or05/26/20182018B0220100568
10/31/2018RichardsonCharlesE09/09/194871BM2143 Huron Dr.AikenSCDUS / Driving under suspension, license04/14/20182018B0220100563
10/31/2018RichardsonCharlesE09/09/194871BM2143 Huron Dr.AikenSCDUS / Driving under suspension, license04/14/20182018B0220100564
10/30/2018ParkJamesMatthew09/26/198831WM115 Derry LnBarnwellSCSHOPLIFTING, VALUE $2,000 OR LESS07/24/20182018B0220100559
10/24/2018KeiferDianeAilsa03/24/196257WF130 Colley StAikenSCSHOPLIFTING 1st11/25/20172018B0220100547
10/24/2018KeiferDianeAilsa03/24/196257WF130 Colley StAikenSCSHOPLIFTING, VALUE $2,000 OR LESS05/03/20182018B0220100548
10/23/2018WilliamsonCrystalJ04/20/198534BF1111 Williston RdAikenSCDUS 2nd07/24/20182018B0220100543
10/22/2018FrazierKendallDemetrius08/05/199425BM5206 Trotters RunAikenSCForgery > $10,00009/10/20182018A0220100823
10/16/2018SeabrookAmanda06/28/198732BF96 Joanne DrAikenSCDisorderly / Public disorderly conduct08/26/20182018B0220100529
10/15/2018DaughertyJohnAllen10/03/196059WM626 Cooks Bridge RdAikenSCDUS 1st /Driving under suspension, lice06/29/20182018B0220100526
10/15/2018DaughertyJohnAllen10/03/196059WM626 Cooks Bridge RdAikenSCOperating/Allow Operation Uninsured MV06/29/20182018B0220100527
10/15/2018DaughertyJohnAllen10/03/196059WM626 Cooks Bridge RdAikenSCIMPROPER VEHICAL LICENSE06/29/20182018B0220100528
10/06/2018HooperShaidejahNiree09/10/199920BF625 Hazel DrAikenSCBREACH/ Breach of trust with fraudulent09/22/20182018A0220100788
10/05/2018RhodesJeromeDouglas08/06/197445BM517 Albeville AveAikenSCASSAULT/Assault & Battery 3rd degree10/01/20182018A0220100781
10/03/2018WhiteAhshiaElyese01/10/198930BF1039 Carriage Dr. Apt BAikenSCDisorderly / Public disorderly conduct06/28/20182018B0220100504
10/03/2018GrahamClamontThomas05/19/199326BM282 Whispering Pine TerraceAikenSCNo Driver's License07/02/20182018B0220100505
10/03/2018SpannMarcusDavid04/01/198138BM112 Willis Hill RdAikenSCASSAULT/Assault & Battery 3rd degree07/17/20182018B0220100506
10/02/2018CoatesJamesIkeen06/13/199029BM1457 Aldrich StAikenSCDUS 1st /Driving under suspension, lice05/11/20182018B0220100494
10/02/2018CoatesJamesIkeen06/13/199029BM1457 Aldrich StAikenSCDUI 1st - Breath Alcohol Test (0.10% - 006/01/20182018B0220100495
10/02/2018CoatesJamesIkeen06/13/199029BM1457 Aldrich StAikenSCDUS 1st /Driving under suspension, lice06/01/20182018B0220100496
10/01/2018HowardJakuanaRoneccia08/15/199821BF2923 Pickens AveAikenSCDUS 1st /Driving under suspension, lice05/17/20182018B0220100489
10/01/2018TillerDarrenThurman06/14/197049WM909 Robinhood CirAikenSCSHOPLIFTING, VALUE $2,000 OR LESS06/07/20182018B0220100493
09/27/2018NixBrandan03/05/198435BM204 Woodridge DrSpartanburgSCDUS/ DUS 3rd or sub offense07/14/20182018B0220100485
09/26/2018ReddChadEverett07/30/197841WM173 Pelzer StWarrenvilleSCNo Driver's License (1st Offense)07/16/20162018B0220100475
09/17/2018RiceSandraKay09/19/197049WF229 Sycamore StreetWarrenvilleSCFORGERY < $10,00008/06/20182018A0220100726
09/17/2018RiceSandraKay09/19/197049WF229 Sycamore StreetWarrenvilleSCFINANCIAL IDENTITY FRAUD08/06/20182018A0220100727
09/17/2018BurtonTomazLedeivence10/14/199722BM7102 Glen Arbor CourtAikenSCLarceny / Petit or Simple Larceny - $2,009/17/20182018A0220100728
09/17/2018BurtonSymia04/23/199920BF7102 Glenn Arbor CtAikenSCASSAULT/Assault & Battery 3rd degree09/17/20182018A0220100729
09/13/2018BrownMarcusAntwone10/12/198930BM492 Archie Ware RdRidge SpringSCDRUGS/Simple Possession Marijuana06/16/20182018B0220100449
09/13/2018BrownMarcusAntwone10/12/198930BM492 Archie Ware RdRidge SpringSCResisting Arrest CITY CODE AMENDED 200106/16/20182018B0220100450
09/11/2018AbneyJarvisAlbert10/27/199326BM510 Lakeview RdNorth AugustaSCSHOPLIFTING11/06/20172018B0220100441
09/01/2018BletcherLesaAnn02/03/196653BF700 Camellia St N EAikenSCLarceny / Petit or Simple Larceny - $2,009/01/20182018A0220100697
08/30/2018RhinehartAliciaSamatha03/23/197049WF108 Juanita DrAikenSCDUS 1st /Driving under suspension, lice06/02/20182018B0220100426
08/28/2018ButlerNicholasJerome12/29/197939BM1204 Lake Greenwood DrNORTH AUGUSTASCALCOHOL/Open Container Beer02/05/20182018B0220100413
08/28/2018ButlerNicholasJerome12/29/197939BM1204 Lake Greenwood DrNORTH AUGUSTASCREPORT/Provide False Information to Law02/08/20182018B0220100415
08/28/2018GuzmanAmberGail08/08/198039WF616 TimberlaneAikenSCDUI 1st - ( UNABLE)04/04/20182018B0220100416
08/28/2018GuzmanAmberGail08/08/198039WF616 TimberlaneAikenSCCHILD/child endangerment, commit certain04/04/20182018B0220100417
08/20/2018JohnsonRichardLee12/27/199424BM1110 Croft Ave N EAikenSCMALICIOUS INJURY PROPERTY <$200001/23/20172018B0220100397
08/19/2018YoumansStephenDexter01/03/196455WM236 Paige Point Rd.SeabrookSCFail to Comply With Order of PSO07/12/20182018A0220100662
08/14/2018CroftStaceyBroen10/04/199128BF1443 Redd StAikenSCDRUGS/Simple Possession Marijuana04/27/20182018B0220100385
08/14/2018CroftStaceyBroen10/04/199128BF1443 Redd StAikenSCALCOHOL/Open Container Beer04/27/20182018B0220100386
08/14/2018HamiltonSherryNicole10/03/198039WF155 Horry St NeAikenSCOperating/Allow Operation Uninsured MV04/30/20182018B0220100387
08/14/2018KennerSophronia08/24/196752BF118 Canay LaneAikenSCDUS 1st06/11/20182018B0220100390
08/02/2018PontooEdie04/10/198732BF405 James Shull Rd.SalleySCDUS 1st /Driving under suspension, lice03/03/20182018B0220100362
07/30/2018FordTabitha07/05/198930BF71 Rose StBarnwellSCAssault & Battery 3rd11/07/20172018B0220100344
07/30/2018FordTabitha07/05/198930BF71 Rose StBarnwellSCDOC11/07/20172018B0220100345
07/26/2018HolleyKuntaKinta02/21/197742BM436 Plunkett Ave N WAikenSCDUAC .0811/12/20172018B0220100341
07/26/2018HolleyKuntaKinta02/21/197742BM436 Plunkett Ave N WAikenSCDUS 1st11/12/20172018B0220100342
07/26/2018HolleyKuntaKinta02/21/197742BM436 Plunkett Ave N WAikenSCFailure to Comply11/12/20172018B0220100343
07/25/2018BarnesAntroinateDarice07/21/197940BF238 Stone DrAikenSCProviding False Info to PSO CITY ORDINAN07/22/20182018A0220100600
07/25/2018BarnesAntroinateDarice07/21/197940BF238 Stone DrAikenSCDUS 2nd,/Driving under suspension, licen07/22/20182018A0220100601
07/25/2018BarnesAntroinateDarice07/21/197940BF238 Stone DrAikenSCTraffic / Operating vehicle on highway w07/22/20182018A0220100602
07/25/2018WilliamsCassiusMohammad07/21/199821BM526 Abbeville Ave. NwAikenSCTRESPASSING/Entering premises after warn07/25/20182018A0220100608
07/24/2018HamptonJessicaLasha01/16/198534BF4678 Columbia HwyRidge SpringSCSIMPLE LARCENY ($2,000 OR LESS)12/10/20162017A0220100042
07/19/2018AbneyKennyJunior07/28/198534BM189 Catfish RdBarnwellSCBreach of trust with fraudulent intent v07/16/20182018A0220100595
07/15/2018JacksonCharlesEdward01/23/195762BM368 Toole StAikenSCLarceny / Petit or Simple Larceny - $2,006/07/20182018A0220100583
07/14/2018CreechStormie07/26/197643WF270 Cherry StBarnwellSCASSAULT/Assault & Battery 3rd degree07/14/20182018A0220100575
07/14/2018CreechStormie07/26/197643WF270 Cherry StBarnwellSCASSAULT/Assault & Battery 3rd degree07/14/20182018A0220100576
07/14/2018MooreDerekChester Damian09/30/198138BM43 Pleasant Lane Rd.EdgefieldSCBREACH/ Breach of trust with fraudulent06/17/20182018A0220100582
07/12/2018TempleRonaldW07/20/197742WM71 Downing St.ColumbiaSCSHOPLIFTING, VALUE $2,000 OR LESS06/04/20182018B0220100327
07/12/2018CarterCharlesLynn05/11/197643BM321 Cherokee St S EAikenSCASSAULT/Assault & Battery 3rd degree06/04/20172018B0220100153
07/11/2018WilliamsCassiusMohammad07/21/199821BM526 Abbeville Ave. NwAikenSCTRESPASSING/Entering premises after warn07/11/20182018A0220100566
07/09/2018MorrisDominqueMaurice02/28/199326BM260 Lanier RdJohnsonSCNo Driver's License04/13/20182018B0220100324
07/02/2018WoodsQuentinVershod01/15/199128BM45 Pine StAikenSCDUS 2nd,/Driving under suspension, licen04/28/20182018B0220100315
06/28/2018DanielsOllie06/23/195663BM424 Fairfield StAikenSCDUI 1st - No Breath Alcohol Test08/29/20172018B0220100312
06/26/2018McGeeJosephAndrew07/16/199029WM2407 Andrews CircleAikenSCDUS 2nd,11/25/20172018B0220100218
06/25/2018GunterVickyFox09/30/195762WF2831 Old Camp LongAikenSCChildren / Legal custodian, unlawful neg12/29/20172017A0220101174
06/23/2018ThomasDemariusAntwoin05/23/199029BM7000 Canvasback Circle Apt.7102AikenSCFail to Comply With Order of PSO06/23/20182018A0220100510
06/23/2018ThomasDemariusAntwoin05/23/199029BM7000 Canvasback Circle Apt. 7102AikenSCDUS 2nd,/Driving under suspension, licen06/23/20182018A0220100511
06/22/2018OharaShaunPatrick11/01/198138WM35 Kennedy Dr.North AugustaSCSHOPLIFTING 2ND02/12/20182018B0220100303
06/12/2018ButlerLurethaMinor11/17/196950BF45 Pine StAikenSCDUS 1st01/30/20182018B0220100287
06/12/2018ButlerLurethaMinor11/17/196950BF45 Pine StAikenSCOperating/Allow Operation Uninsured MV01/30/20182018B0220100288
06/12/2018ButlerLurethaMinor11/17/196950BF45 Pine StAikenSCFailure to Surrender Suspended Tag01/30/20182018B0220100289
06/12/2018YoungWillieV04/19/196752BM156 Pickens StreetDenmarkSCDRUGS/Simple Possession Marijuana02/03/20182018B0220100291
05/30/2018CunninghamCoy08/08/196455BM12481 Westhampton CirWellingtonFLDRUGS/POSSESSION OF CRACK COCAINE 1st Of11/06/20172018A0220100444
05/29/2018PinkneyLatoria01/10/198732BF1734 Van Heise St Apt EColumbiaSCDomestic / Domestic Violence, 2nd degree05/29/20182018A0220100434
05/25/2018LasterDelmerGlenn09/02/195465WM135 Pinnacle DriveJohnson CityTNBREACH / Breach of trust with fraudulent11/29/20172018A0220100423
05/22/2018GoforthOlivia05/19/199326BM2133 Vandivere Rd Apt 2 DAugustaGASHOPLIFTING10/09/20172018B0220100274
05/21/2018HoustonKiundraShanise06/30/199722BF1530 Harden St.ColumbiaSCSHOPLIFTING, VALUE $2,000 OR LESS06/20/20172018B0220100267
05/01/2018KneeceDustin05/03/199425WM151 Ginger LnAikenSCDisorderly / Public disorderly conduct02/23/20182018B0220100209
05/01/2018KneeceDustin05/03/199425WM151 Ginger LnAikenSCDisorderly / Public disorderly conduct02/23/20182018B0220100211
04/27/2018LewisVirginiaF10/29/197049WF342 Dragstrip RdAikenSCBreach / Breach of trust with fraudulent04/07/20182018A0220100326
04/21/2018LoxtonDavid04/25/199128B1064 Croft AveAikenSCASSAULT/Assault & Battery 3rd degree04/16/20182018A0220100315
04/17/2018SimpsonJonathanGlenn08/26/196158WM1484 Reynolds RdBarnwellSCBurglary / Burglary (After June 20, 198504/17/20182018A0220100304
04/17/2018SimpsonJonathanGlenn08/26/196158WM1484 Reynolds RdBarnwellSCLarceny / Grand Larceny, value more than04/17/20182018A0220100305
04/11/2018RileyDavidJoe05/23/197940WM615 Wrights MilllAikenSCDUS 1st01/16/20182018B0220100166
03/29/2018PooleJeremySean03/07/199425BM35 Vanderbilt DrAikenSCDUS 2nd, not susp for DUI10/02/20162018B0220100151
03/29/2018FowlerWilliamRayford05/25/197049WM849 Magnolia StAikenSCDUI 1st - refuse11/14/20172018B0220100155
03/29/2018FagansLaura06/13/197841BF1435 Park Ave StAikenSCLEAVE SCENE OF ACCIDENT11/28/20172018B0220100156
03/29/2018FagansLaura06/13/197841BF1435 Park Ave StAikenSCDUS 2nd11/28/20172018B0220100157
03/26/2018JohnsonTimothyJermard08/24/199227BM335 Hill Ave Apt BAikenSCDUS 2nd ADVISE TO APPEAR12/13/20152018B0220100148
03/20/2018YoumansDe'andreaDesi'ee01/26/199227BF340 Kershaw Street NeAikenSCMalicious injury to real property $200003/19/20182018A0220100228
03/12/2018LasterDelmerGlenn09/02/195465WM135 Pinnacle DriveJohnson CityTNBREACH/ Breach of trust with fraudulent01/30/20182018A0220100210
03/08/2018JamesRobertAntonio07/06/196158BM5043 Perry LnSalleySCDisorderly / Public disorderly conduct01/17/20182018B0220100135
03/07/2018WareMichael05/14/197643BM305 Sycamore DrNorth AugustaSCFINANCIAL TRANSACTION CARD FRAUD<$500 in02/23/20182018A0220100197
02/23/2018DelaneyCraigAllen07/28/198732B3442 Toms DrAugustaGABREACH / Breach of trust with fraudulent02/16/20182018A0220100172
02/22/2018CurryFabianDelon02/26/199029BM9 Bettis Academy ExtTrentonSCBREACH/obtain signature or prop under fa02/22/20182018A0220100166
02/19/2018MatthewsPhiliseaJesea09/12/199623BF428 W Railroad AveBatesburgSCASSAULT/Assault & Battery 3rd degree02/18/20182018A0220100158
02/19/2018SettlesFrederick09/26/198435BM1330 Aldrich StAikenSCDUS 1st11/07/20172018B0220100118
02/13/2018PettusJoshuaDevon12/30/199226BM796 Henry RdNeesesSCDistribution Crack Cocaine02/13/20182018A0220100132
02/13/2018PettusJoshuaDevon12/30/199226BM796 Henry RdNeesesSCDrugs / Distribution of Crack within pro02/13/20182018A0220100133
02/13/2018PettusJoshuaDevon12/30/199226BM796 Henry RdNeesesSCDrugs / Administer, distribute, etc. Sch02/13/20182018A0220100136
02/13/2018PettusJoshuaDevon12/30/199226BM796 Henry RdNeesesSCDRUGS/DISTRIBUTE,SELL,MANUF,OR PWID CONT02/13/20182018A0220100137
02/13/2018PettusJoshuaDevon12/30/199226BM796 Henry RdNeesesSCDrugs / Distribution of Crack Cocaine02/13/20182018A0220100138
02/13/2018PettusJoshuaDevon12/30/199226BM796 Henry RdNeesesSCDRUGS/DISTRIBUTE,SELL,MANUF,OR PWID CONT02/13/20182018A0220100139
02/12/2018LynchLashonda07/27/198831BF2812 Joy RdAugustaGASHOPLIFTING 1st10/15/20172018B0220100099
02/11/2018AbneyShantelLadebriella01/10/198930BF952 Springfield Church RdTrentonSCMalicious injury to real property $200002/11/20182018A0220100110
02/11/2018AbneyShantelLadebriella01/10/198930BF288 Shiloh Heights RoadAikenSCASSAULT/Assault & Battery 3rd degree02/11/20182018A0220100112
02/03/2018TylerLarryDarnell12/06/197841BM626 Richland AvenueAikenSCFAILURE TO STOP FOR BLUE LIGHT/SIREN, NO02/03/20182018A0220100092
02/03/2018TylerLarryDarnell12/06/197841BM113 Bose DrAikenSCDUS 1st /Driving under suspension, lice02/03/20182018A0220100093
02/01/2018BaconTamishaJkuanita08/10/198831BF423 Ridge AvAikenSCFalse Information to Police11/28/20172018B0220100062
01/30/2018EasterlingNataliaShantell10/17/199425BF20 Lula LnJacksonSCBREACH/ Breach of trust with fraudulent01/27/20182018A0220100080
01/19/2018TurnerDanielLee08/07/198930WM1271 Shaws Fork RdAikenSCFORGERY < $10,00009/03/20172017A0220100969
01/16/2018KnightChristopherAnthony07/25/198633WM127 Twin Creek Farm Rd.AikenSCLarceny / Grand Larceny, value $10,000 o01/15/20182018A0220100037
01/16/2018WashingtonPierceAnthony10/17/198633BM910 Alfred St N EAikenSCFORGERY < $10,00011/09/20172018A0220100038
01/10/2018GomillionJamesBilly05/20/199425BM412 Newberry St NwAikenSCProvide False Information11/11/20172018B0220100021
01/10/2018GomillionJamesBilly05/20/199425BM412 Newberry St NwAikenSCSimple Possession Marijuana11/11/20172018B0220100022
01/10/2018GomillionJamesBilly05/20/199425BM412 Newberry St NwAikenSCDUS 2nd, failure pay ticket11/11/20172018B0220100023
01/06/2018WestMauriceLamont05/04/197247BM121 Kellogg DriveAikenSCASSAULT/Assault & Battery by Mob, 2nd de01/06/20182018A0220100012
01/04/2018CouncilLamontezDeshaun02/03/199029BM226 Jehossee DrAikenSCTRESPASSING after notice10/13/20172018B0220100012
12/27/2017HatcherShondaVanessa01/30/197346WF127 Justic St.WarrenvilleSCLARCENY/SIMPLE LARCENY ($2,000 OR LESS)12/17/20172017A0220101166
12/24/2017WashingtonPierceAnthony10/17/198633BM910 Alfred St N EAikenSCASSAULT/Assault & Battery 3rd degree12/24/20172017A0220101159
12/10/2017RobinsonTakeiaShatori04/29/199326BF1602 Stayman PalceAugustaGASHOPLIFTING, VALUE $2,000 OR LESS12/10/20172017A0220101113
12/05/2017GomillionJamesBilly05/20/199425BM412 Newberry St NwAikenSCRECEIVING STOLEN GOODS $2,000 OR LESS11/30/20172017A0220101103
12/02/2017CoffmanMatthewDylan06/25/199524WMDRUGS/Possession 0f Less than One Gram M08/08/20172017A0220101096
11/29/2017DrinksSamuelDiontavious04/28/199425BM1593 Floyd StreetAugustaGAWeapons/UNLAWFUL CARRYING OF PISTOL10/08/20172017A0220101072
11/29/2017DrinksSamuelDiontavious04/28/199425BM1593 Floyd StreetAugustaGAWEAPONS/Sale, delivery of pistol to,and10/08/20172017A0220101073
11/29/2017DrinksSamuelDiontavious04/28/199425BM1593 Floyd StreetAugustaGATRAFFIC/Leave Scene Property Damage-Atte10/08/20172017A0220101074
11/27/2017LovettRonaldAntonio05/11/198732BM31 Carriee LnNorth AugustaSCASSAULT/Assault & Battery 3rd degree03/08/20162017A0220101067
11/16/2017TuckerWalterLee04/19/198138BM1750 Essie McIntyre Blvd Apt Y198AugustaGANo Driver's License (1st Offense)09/29/20172017B0220100537
11/16/2017KeyDaryl10/10/198831BM318 Greenville StAikenSCCONTEMPT/FAILURE TO APPEAR10/23/20162017B0220100538
11/16/2017BishopBetsy01/06/197346WF128 Tulip DrClearwaterSCNo Driver's License (1st Offense)08/19/20172017B0220100539
11/16/2017BishopBetsy01/06/197346WF128 Tulip DrClearwaterSCCONTEMPT/FAILURE TO APPEAR08/19/20172017B0220100540
11/16/2017TuckerWalterLee04/19/198138BM1750 Essie McIntyre Blvd Apt Y198AugustaGACONTEMPT/FAILURE TO APPEAR09/29/20172017B0220100543
11/16/2017KeyDaryl10/10/198831BM318 Greenville StAikenSCDRUGS/Simple Possession Marijuana 28g1st10/23/20162017B0220100459
11/10/2017TaylorTonyRandolph05/22/198534WM254 Dicks DrBeech IslandSCLARCENY/SIMPLE LARCENY ($2,000 OR LESS)11/10/20172017A0220101022
10/08/2017TurnerDanielLee08/07/198930WM1271 Shaws Fork RdAikenSCFORGERY < $10,00009/03/20172017A0220100970
09/15/2017WestMauriceLamont05/04/197247BM121 Kellogg DriveAikenSCFINANCIAL TRANSACTION CARD FRAUD>$500 in06/14/20172017A0220100894
09/02/2017PattersonAnitaAndrealle01/27/197148BF400 Valley AveNew Ellenton, Sc 29809ASSAULT/Assault & Battery 3rd degree09/02/20172017A0220100859
09/01/2017OxendineBrittanyNicole08/12/198930WF88 Huntington Dr.BarnwellSCProviding False Info to PSO CITY ORDINAN08/28/20172017A0220100853
08/22/2017PriceBrandyLatrice03/30/198039BF1407 Edgefield Hwy.AikenSCFORGERY < $10,00007/22/20172017A0220100821
08/22/2017PriceBrandyLatrice03/30/198039BF1407 Edgefield Hwy.AikenSCFORGERY < $10,00007/25/20172017A0220100822
08/22/2017PriceBrandyLatrice03/30/198039BF1407 Edgefield Hwy.AikenSCFORGERY < $10,00007/25/20172017A0220100825
08/17/2017NordahlBlaneDavid04/19/196257WM7347 Lawn Tennis LnJacksonvilleFLBURGLARY/burglary (post 6/20/85) 1st deg11/20/20112017A0220100803
08/17/2017NordahlBlaneDavid04/19/196257WM7347 Lawn Tennis LnJacksonvilleFLLarceny/GRAND LARCENY $10,000 OR MORE11/20/20112017A0220100804
08/09/2017MorganSaralynn08/25/198930WF1072 East Cumorah DriveGenolaUTFILING FALSE POLICE REPORT-FELONY -CSC02/15/20172017A0220100757
08/06/2017RobinsonJohnnie11/10/199722BM21 Converse Dr.AikenSCSHOPLIFTING, VALUE $2,000 OR LESS08/05/20172017A0220100749
07/20/2017DornMichaelWallace08/17/197544BM1145 Pickens Ave NwAikenSCMALICIOUS INJURY PERSONAL PROPERTY <$20007/20/20172017A0220100712
07/20/2017DornMichaelWallace08/17/197544BM331 Florence St NwAikenSCASSAULT/Assault & Battery 3rd degree07/20/20172017A0220100713
07/19/2017JonesWilliam05/11/196257BM168 Whispering PinesAikenSCRECEIVING STOLEN GOODS $2,000 OR LESS07/18/20172017A0220100701
07/18/2017HowardDerrickJerod08/18/198633BM4856 Effingham HwySylvaniaGAUnlawful Conduct Toward a Child06/08/20172017A0220100696
07/18/2017HowardDerrickJerod08/18/198633BM4856 Effingham HwySylvaniaGAUnlawful Conduct Toward a Child06/08/20172017A0220100697
07/14/2017HightowerAubrey03/11/199722WF611 Foreman Dr.New EllentonSCBREACH/breach of trust with fraudulent i07/08/20172017A0220100690
07/03/2017RobertsLawanda07/31/197643BF188 Mt. Cavalry Church RoadUlmerSCUSE OF VEHICLE WITHOUT OWNERS CONSENT06/16/20172017A0220100669
06/25/2017RoweEricJovon04/26/199128BM1018 Keys Pond RdRidge SpringSCBREACH/breach of trust with fraudulent i05/19/20172017A0220100648
06/23/2017WilliamsTravisDemarcus03/07/198435BM1408 Hampton AveAikenSCDOMESTIC/Domestic Violence 1st Degree06/22/20172017A0220100646
06/22/2017RiversMarion06/26/197742BM616 Cowpath LnMonks CornerSCDOMESTIC/Domestic Violence 2nd Degree06/21/20172017A0220100639
06/08/2017PadgettChristopherJames05/16/198534WM133 Cherry StBeech IslandSCMinor/Contributing to the delinquency of06/05/20172017A0220100609
06/03/2017TurnerJohnathanLamar10/16/197544BM2220 Burton Ferry HwySylvaniaGAASSAULT/Assault & Battery 2nd degree06/03/20172017A0220100596
06/01/2017BrownTamera09/27/198534BF342 Cherokee StAikenSCLARCENY/SIMPLE LARCENY ($2,000 OR LESS)06/01/20172017A0220100588
06/01/2017BrownTamera09/27/198534BF342 Cherokee StAikenSCLARCENY/SIMPLE LARCENY ($2,000 OR LESS)06/01/20172017A0220100589
05/23/2017WoodworthJoshuaMitchell06/30/199029WM950 Brooks Ave Unit CAikenSCVIOLATION ORDER OF PROTECTION/DOMESTIC M05/23/20172017A0220100540
04/27/2017HubbardChristopherLowell03/20/197049WM1218 Two Notch Road S EAikenSCMALICIOUS INJURY PERSONAL PROPERTY <$20005/04/20152015A0210400101
04/25/2017BatesJamesEarl02/20/196554BM103 Alvin DriveAIKENSCASSAULT/Assault & Battery 3rd degree04/25/20172017A0220100417
04/08/2017MorrisClintChristopher03/06/197940WM120 Mill StSt MathewsSCFAILURE TO STOP FOR BLUE LIGHT/SIREN, NO04/07/20172017A0220100358
04/08/2017MorrisClintChristopher03/06/197940WM120 Mill StSt MathewsSCDUS 1st /Driving under suspension, lice04/07/20172017A0220100359
04/08/2017MorrisClintChristopher03/06/197940WM120 Mill StSt MathewsSCSHOPLIFTING/3rd> VALUE $2000 OR LESS (EN04/07/20172017A0220100360
03/21/2017RandolphAshtonBlake05/13/199524BM2015 Sycamore StreetNew EllentonSCFILING FALSE POLICE REPORT-FELONY08/06/20162017A0220100299
03/21/2017RandolphAshtonBlake05/13/199524BM2015 Sycamore StreetNew EllentonSCUNLAWFUL CARRYING OF PISTOL08/06/20162017A0220100300
03/21/2017RandolphAshtonBlake05/13/199524BM2015 Sycamore StreetNew EllentonSCDischarging a Firearm in City Limits08/06/20162017A0220100301
03/20/2017HardenRickyLorenzo01/21/199326BM227 Kershaw St NeAikenSCSIMPLE LARCENY ($2,000 OR LESS)03/17/20172017A0220100295
03/20/2017DuboseTariTyreek06/21/197445BM112 Hampton Avenue NwAikenSCDOMESTIC/Domestic Violence 2nd Degree03/03/20172017A0220100243
03/16/2017DeloachKevinMelchisedec04/27/199425BM201 E Telfair St Apt A4AugustaGAFORGERY < $10,00001/13/20172017A0220100276
02/13/2017KnightRobertEarnest04/18/197940BM561 Union Church LnAIKENSCMURDER/attempted murder02/09/20172017A0220100195
02/13/2017KnightRobertEarnest04/18/197940BM561 Union Church LnAIKENSCROBBERY/attempted armed or allegedly arm02/09/20172017A0220100196
02/13/2017KnightRobertEarnest04/18/197940BM561 Union Church LnAIKENSCWeapons / Possession of Firearm or Ammun02/09/20172017A0220100197
02/13/2017KnightRobertEarnest04/18/197940BM561 Union Church LnAIKENSCASSAULT/Assault & Battery of a hight & a02/09/20172017A0220100198
02/13/2017KnightRobertEarnest04/18/197940BM561 Union Church LnAIKENSCPOSS FIREARM DURING COMMISSION OF A02/09/20172017A0220100199
02/13/2017KnightRobertEarnest04/18/197940BM561 Union Church LnAIKENSCMURDER/attempted murder02/09/20172017A0220100204
02/09/2017SpannBrandonLloyd08/07/198633BM303 Locke Lane S EAikenSCDOMESTIC/Domestic Violence 3 rd Degree M02/09/20172017A0220100181
02/03/2017HendersonAdam08/11/197643WM703 Hammond DriveNorth AugustaSCASSAULT/Assault & Battery 2nd degree01/27/20172017A0220100149
01/23/2017ChavisTina04/21/196950WF202 Retro DrAikenSCTHEFT OF CONTROLLED SUBSTSANCE01/13/20172017A0220100096
01/20/2017SmithWallaceDuke04/09/198039BM672 Horry St NeAikenSCLeave Scene of Accident01/20/20172017A0220100083
01/20/2017SmithWallaceDuke04/09/198039BM672 Horry St NeAikenSCNo Driver's License (1st Offense)01/20/20172017A0220100084
01/17/2017BrodieJonathanArthur02/23/198831BM208 Gillburg Estates CourtHendersonNCGRAND LARCENY $10,000 OR MORE10/13/20162017A0220100052
01/17/2017HaywoodElijahOneal11/28/198930BM79 Evans Street, Lot 10HendersonNCGRAND LARCENY $10,000 OR MORE10/13/20162017A0220100053
12/31/2016SatcherTiannaShay12/08/199128BF106 Honeysuckle Court Apt 6RadcliffKYFINANCIAL TRANSACTION CARD FRAUD<$500 in12/12/20162016A0220101282
12/31/2016SatcherTiannaShay12/08/199128BF106 Honeysuckle Court Apt 6RadcliffKYSIMPLE LARCENY ($2,000 OR LESS)12/12/20162016A0220101283
12/31/2016AldermanBrandyDawn03/12/197643WF1230 Powell Pond RoadAikenSCFINANCIAL TRANSACTION CARD FRAUD<$500 in12/12/20162016A0220101284
12/31/2016AldermanBrandyDawn03/12/197643WF1230 Powell Pond RoadAikenSCSIMPLE LARCENY ($2,000 OR LESS)12/12/20162016A0220101285
12/27/2016SatcherTiannaShay12/08/199128BF106 Honeysuckle Court Apt 6RadcliffKYFORGERY < $10,00012/12/20162016A0220101265
12/06/2016RussellDorothyJune06/26/193584WF1 Parsons SwAIKENSCBREACH/breach of trust with fraudulent i07/10/20162016A0220101190
11/24/2016CarrJordanAlexander07/09/199821BM510 Sagebrush TrailEvansGASIMPLE LARCENY ($2,000 OR LESS)11/23/20162016A0220101144
11/13/2016GoranskyStevenWesley10/04/196158WM1 Rachel Ave.TrentonSCSIMPLE LARCENY ($2,000 OR LESS)11/12/20162016A0220101102
10/26/2016HowardDalvinJamar12/13/199227BM7 Dove StJohnstonSCFORGERY < $10,00009/28/20162016A0220101040
10/26/2016HowardDalvinJamar12/13/199227BM7 Dove StJohnstonSCFORGERY < $10,00009/28/20162016A0220101041
10/24/2016GaffneyTyshawnClyde06/22/198237BM385 Kelly St.WillistonSCMALICIOUS INJURY PERSONAL PROPERTY <$20009/30/20162016A0220101030
10/14/2016CampbellKennethWayne06/29/195564BM2830 GLENN HILLSAUGUSTAGASHOPLIFTING, VALUE $2,000 OR LESS12/18/20132016A0220101006
10/14/2016AnthonyCharles03/23/196158BM2210 Bungalow RdAugustaGAPOSSESSION OF STOLEN GOODS >$1000<$500012/18/20132016A0220101007
10/07/2016LatimoreJanice03/30/196554BF2820 Glenn Hills CircleAugustaGAPOSSESSION OF STOLEN GOODS >$1000<$500001/07/20142016A0220100978
10/06/2016AnthonyCharles03/23/196158BM2210 Bungalow RdAugustaGASHOPLIFTING, VALUE $2,000 OR LESS01/07/20142016A0220100981
10/06/2016CampbellKennethWayne06/29/195564BM2830 GLENN HILLSAUGUSTAGASHOPLIFTING, VALUE $2,000 OR LESS01/07/20142016A0220100982
09/11/2016EnglishReginaldMichael09/28/198534BM1101 Cornish StAikenSCDOMESTIC/Domestic Violence 2nd Degree09/11/20162016A0220100893
09/07/2016AlexanderDewightMarkez04/05/199425BM404 1/2 N Lee StreetFitzgeraldGASHOPLIFTING MORE THAN $2,000 BUT LESS TH08/05/20162016A0220100879
08/19/2016SingletonRickeyAngelo03/31/195465BM3610 Rolling Meadows DriveAugustaGASHOPLIFTING/3rd> VALUE $2000 OR LESS (EN04/30/20162016A0220100823
07/01/2016WilliamsRichardLeonard02/18/195465BM802-D Brandt CourtAikenSCDOMESTIC/Domestic Violence 2nd Degree07/01/20162016A0220100642
06/27/2016SmithTerryWayne06/20/197940WM275 Seleta CircleLexingtonSCFORGERY < $10,00006/27/20162016A0220100632
06/14/2016FrettsRobertGlenn12/05/196257WM141 Wrights Mill RoadAIKENSCDUS 1st04/13/2009I091475
06/06/2016CampbellHenryStoney02/14/198138WM309 Sortwell StreetWest ColumbiaSCSHOPLIFTING MORE THAN $2,000 BUT LESS TH05/30/20162016A0220100555
06/03/2016CampbellHenryStoney02/14/198138WM309 Sortwell StreetWest ColumbiaSCSHOPLIFTING/3rd> VALUE $2000 OR LESS (EN05/16/20162016A0220100556
05/26/2016YonDanielPatrick11/08/198435WM61 Quail Run RdWagenerSCProviding False Info to PSO CITY ORDINAN05/22/20162016A0220100525
05/26/2016YonDanielPatrick11/08/198435WM61 Quail Run RdWagenerSCDUS 2nd ADVISE TO APPEAR05/22/20162016A0220100526
05/26/2016YonDanielPatrick11/08/198435WM61 Quail Run RdWagenerSCDisregarding Traffic Sign05/22/20162016A0220100527
05/25/2016ProctorRichardCharles11/05/198138WM411 Kershaw St N EAikenSCSIMPLE LARCENY ($2,000 OR LESS) ADVISE T05/25/20162016A0220100516
05/17/2016BoydKimberlyFrances10/08/196455WF731 Augusta RoadWarrenvilleSCFORGERY < $10,00005/09/20162016A0220100499
05/17/2016BoydKimberlyFrances10/08/196455WF731 Augusta RoadWarrenvilleSCFORGERY < $10,00005/09/20162016A0220100500
04/21/2016FordLinden05/25/196158WF405 Gilbert StAikenSCBreach / Breach of trust with fraudulent04/21/20162016A0220100430
03/28/2016HowellTamrikaCherylle01/01/1753266BF2310 Springhouse Lane Apt. DAugustaGASIMPLE ASSAULT & BATTERY05/24/2009I091614
03/28/2016RobinsonAnnjoCamille02/01/196059BF1447 Redd St NwAIKENSCCHILDREN/CRUELTY TO CHILDREN06/20/2010I092661
03/28/2016JohnsonSabrinaL01/01/1753266F401 East Hickory AveNEW ELLENTONSCBREACH OF TRUST <$1000 OR LESS09/06/2004I087014
02/29/2016PixleyBelinda06/24/198633BFCHILDREN/cruelty to children (torture, d11/21/20152016A0220100179
02/29/2016MooreNatalieLatrice02/22/198534BF5102 Glen Arbor Ct NwAikenSCCHILDREN/cruelty to children (torture, d11/21/20152016A0220100180
02/25/2016MerrittDushawnJamar01/27/198138BM10 Roosevelt CtAikenSCTRESPASSING/Entering premises after warn02/25/20162016A0220100158
02/24/2016HallReginaGail01/01/1753266WF202 George AvenueNew EllentonSCBREACH/breach of trust with fraudulent i02/21/20162016A0220100156
02/22/2016MerrittDushawnJamar01/27/198138BM10 Roosevelt CtAikenSCTRESPASSING/Entering premises after warn02/22/20162016A0220100151
02/14/2016WilliamsRobertKenneth09/03/198831BM5162 Hwy 23GarfieldGADOMESTIC/Domestic Violence 1st Degree02/14/20162016A0220100141
02/14/2016WilliamsRobertKenneth09/03/198831BM5162 Hwy 23GarfieldGACHILDREN/legal custodian unlawful neglec02/14/20162016A0220100142
02/09/2016BartonDesireeDanielle06/22/198435WF2672 Edgefield HwyTrentonSCSIMPLE LARCENY ($2,000 OR LESS) ADVISE T01/07/20162016A0220100114
01/28/2016MerrittDushawnJamar01/27/198138BM10 Roosevelt CtAikenSCTRESPASSING/Entering premises after warn01/22/20162016A0220100077
01/28/2016MerrittDushawnJamar01/27/198138BM10 Roosevelt CtAikenSCSHOPLIFTING/3rd> VALUE $2000 OR LESS (EN01/22/20162016A0220100078
01/26/2016MerrittDushawnJamar01/27/198138BM10 Roosevelt CtAikenSCTRESPASSING/Entering premises after warn01/22/20162016A0220100070
01/21/2016MerrittDushawnJamar01/27/198138BM10 Roosevelt CtAikenSCTRESPASSING/Entering premises after warn12/29/20152016A0220100063
01/21/2016MerrittDushawnJamar01/27/198138BM10 Roosevelt CtAikenSCSHOPLIFTING/3rd> VALUE $2000 OR LESS (EN01/21/20162016A0220100064
01/21/2016RodriquezRicardo05/04/196851HM3866 Mike Padgett HwyAugustaGASIMPLE LARCENY ($2,000 OR LESS) ADVISE T01/14/20162016A0220100066
01/14/2016HarleyMckinley06/26/193287BM202 Solom Blatt StreetBlackvilleSCVIOLATION ORDER OF PROTECTION/DOMESTIC M01/13/20162016A0220100040
01/12/2016MerrittDushawnJamar01/27/198138BM10 Roosevelt CtAikenSCTRESPASSING/Entering premises after warn01/11/20162016A0220100034
01/12/2016MerrittDushawnJamar01/27/198138BM10 Roosevelt CtAikenSCSHOPLIFTING/3rd> VALUE $2000 OR LESS (EN01/11/20162016A0220100035
12/28/2015RaifordStanley12/16/196454BM104 CYNTHIA DRJohnstonSCASSAULT/Assault & Battery 1st degree MUS12/24/20152015A0220101262
12/23/2015MerrittDushawnJamar01/27/198138BM10 Roosevelt CtAikenSCSHOPLIFTING/3rd> VALUE $2000 OR LESS (EN12/23/20152015A0220101250
12/23/2015MerrittDushawnJamar01/27/198138BM10 Roosevelt CtAikenSCTRESPASSING/Entering premises after warn12/23/20152015A0220101251
12/23/2015MerrittDushawnJamar01/27/198138BM10 Roosevelt CtAikenSCSHOPLIFTING, VALUE $2,000 OR LESS A12/23/20152015A0220101252
12/23/2015MerrittDushawnJamar01/27/198138BM10 Roosevelt CtAikenSCTRESPASSING/Entering premises after warn12/23/20152015A0220101253
12/22/2015WhatleyKelliPage06/08/198336WF511 S. Walker StreetColumbiaSCOBTAIN PRESCRIPTION DRUGS BY FRAUD12/02/20152015A0220101242
12/09/2015MathisCrystal04/20/199029WF230 Jones Ray CirWillistonSCCHILDREN/legal custodian unlawful neglec12/09/20152015A0220101193
12/09/2015CoutrierPetrea04/19/199326B121 Cottonwood Ciecle Apt.1WillistonSCBREACH/breach of trust with fraudulent i11/07/20152015A0220101195
12/06/2015MerrittDushawnJamar01/27/198138BM10 Roosevelt CtAikenSCSHOPLIFTING/3rd> VALUE $2000 OR LESS (EN11/15/20152015A0220101186
12/06/2015MerrittDushawnJamar01/27/198138BM10 Roosevelt CtAikenSCSHOPLIFTING/3rd> VALUE $2000 OR LESS (EN11/29/20152015A0220101187
12/06/2015MerrittDushawnJamar01/27/198138BM10 Roosevelt CtAikenSCSHOPLIFTING/3rd> VALUE $2000 OR LESS (EN11/30/20152015A0220101188
11/10/2015QuarlesWilliamHartwell09/07/194673WM561 Linler LaneAikenSCASSAULT/Assault & Battery 2nd degree MUS11/04/20152015A0220101134
11/03/2015GreeneAdonisMarkez10/31/199623BM2152 Melton Ave.MaconGAASSAULT/Assault & Battery 3rd degree MUS10/24/20152015A0220101105
11/02/2015GayAaronLavelle12/03/197544BM2905AikenSCSIMPLE LARCENY ($2,000 OR LESS) MUST APP10/03/20152015A0220101102
11/02/2015McMillianFernishaNantill04/17/199029BF3424 Seneca AveAikenSCSIMPLE LARCENY ($2,000 OR LESS) MUST APP10/03/20152015A0220101104
10/29/2015MerrittDushawnJamar01/27/198138BM10 Roosevelt CtAikenSCSHOPLIFTING/3rd> VALUE $2000 OR LESS (EN10/13/20152015A0220101088
10/29/2015MerrittDushawnJamar01/27/198138BM10 Roosevelt CtAikenSCSHOPLIFTING/3rd> VALUE $2000 OR LESS (EN10/14/20152015A0220101089
10/29/2015MerrittDushawnJamar01/27/198138BM10 Roosevelt CtAikenSCSHOPLIFTING/3rd> VALUE $2000 OR LESS (EN10/27/20152015A0220101090
10/27/2015MerrittDushawnJamar01/27/198138BM10 Roosevelt CtAikenSCSHOPLIFTING 3rd or Subsequent10/15/20152015A0220101073
10/23/2015MerrittDushawnJamar01/27/198138BM10 Roosevelt CtAikenSCSHOPLIFTING 3rd or Subsequent10/22/20152015A0220101074
10/22/2015QuillerRoslynTeodalinda12/09/197346BF121 Beckham RoadWarrenvillerSCBREACH/breach of trust with fraudulent i10/17/20152015A0220101063
10/16/2015GantShekeriaChaquana06/26/199029BF2016 Roosevelt DriveAugustaGASimple Possession Marijuana MUST APPEAR10/16/20152015A0220101052
10/13/2015ReedDavidLynn02/21/197940WM110 Vine StAikenSCFINANCIAL TRANSACTION CARD FRAUD<$50009/22/20152015A0220101044
10/13/2015ReedDavidLynn02/21/197940WM110 Vine StAikenSCFINANCIAL TRANSACTION CARD FRAUD<$50009/22/20152015A0220101045
10/09/2015MerrittDushawnJamar01/27/198138BM10 Roosevelt CtAikenSCSHOPLIFTING/3rd> VALUE $2000 OR LESS (EN10/09/20152015A0220101027
09/23/2015Oliver JrDavidSteven06/17/198732WM1827 McDowell StreetAugustaGALEAVE SCENE OF ACCIDENT MINOR INJURY09/22/20152015A0220100971
09/23/2015Oliver JrDavidSteven06/17/198732WM1827 McDowell StreetAugustaGANo Driver's License (1st Offense) MUST A09/22/20152015A0220100972
09/23/2015Oliver JrDavidSteven06/17/198732WM1827 McDowell StreetAugustaGARECKLESS DRIVING09/22/20152015A0220100973
09/04/2015CooperJeanetteRae07/31/197643WF248 Talatha Church RoadAikenSCLeave Scene of Accident07/24/20152015A0220100911
09/02/2015KeyMorganSuzanne05/17/199128WF96 Sunhigh RdJohnstonSCFailure to Yield Right of Way08/14/20152015A0220100907
08/26/2015StaleyCharlesLaron08/11/196752BM262 Squirrels RdSalleySCDUS (NON DUI) 3rd or sub. MUST APPEAR05/25/20152015A0220100881
08/26/2015StaleyCharlesLaron08/11/196752BM262 Squirrels RdSalleySCProviding False Info to PSO CITY ORDINAN05/25/20152015A0220100882
08/21/2015GrahamDanielleDenise11/09/199623BM500 Fletcher StreetOrangeburgSCSHOPLIFTING, VALUE $2,000 OR LESS MUST A01/11/20152015A0220100870
08/20/2015GrahamDanielleDenise11/09/199623BM500 Fletcher StreetOrangeburgSCProviding False Info to PSO CITY ORDINAN01/11/20152015A0220100869
08/13/2015PittmanAaliyahNicole08/12/199227BF25 Nondron St.New EllentonSCBank fraud08/12/19922015A0220100856
08/05/2015BooneMichaelAlan01/29/196257WM111 Carroll Avenue WestNew EllentonSCSHOPLIFTING/3rd> VALUE $2000 OR LESS (EN08/04/20152015A0220100822
08/05/2015BooneMichaelAlan01/29/196257WM111 Carroll Avenue WestNew EllentonSCTRESPASSING/Entering premises after warn08/04/20152015A0220100823
07/02/2015MilesMichaelJames02/09/198138WM224 Archdale DrAikenSCLARCENY/Petit or Simple Larceny- $2,00006/26/20152015A0220100691
06/26/2015RobinsonYcedraRavohn06/24/199326BF4137 Allendale AveAikenSCMALICIOUS INJURY PERSONAL PROPERTY <$20006/22/20152015A0220100661
05/20/2015ColemanLaurie12/24/198434WF203 G Sunridge RoadAikenSCBREACH/breach of trust with fraudulent i05/20/20152015A0220100479
05/06/2015HubbardChristopherLowell03/20/197049WM1218 Two Notch Road S EAikenSCDOMESTIC/Criminal Domestic Violence05/04/20152015A0210400100
04/29/2015KnightRobertEarnest04/18/197940BM561 Union Church LnAIKENSCASSAULT/assault & battery 3rd degree04/28/20152015A0220100398
04/23/2015KingAllenDavid02/20/197247BM655 Potter House RoadJeffersonGAFORGERY < $10,00003/31/20152015A0220100372
03/27/2015BoydKeannaL04/27/199425BF1834 Stone Battery RdNewberrySCTRESPASSING/Entering premises after warn03/27/20152015A0220100267
03/22/2015CarrSusanAnn09/06/196059WF525 Peggy CircleWarrenvilleSCMALICIOUS INJURY PERSONAL PROPERTY <$20002/22/20152015A0220100245
03/20/2015WadeAnnieM02/27/195465BF8232 Be Nice CourtGranitevilleSCASSAULT/assault & battery 3rd degree03/20/20152015A0220100233
03/19/2015McKnightReginaKatrell08/03/198237BF642 Moore RdLake CitySCBreach / Breach of trust with fraudulent02/06/20152015A0220100232
03/14/2015BoydKeannaL04/27/199425BF1834 Stone Battery RdNewberrySCTRESPASSING/Entering premises after warn03/14/20152015A0220100222
01/15/2015CarterLarryOtis09/21/197841BM536 Horry StAikenSCSHOPLIFTING, VALUE $2,000 OR LESS01/08/20152015A0220100057
01/15/2015CarterLarryOtis09/21/197841BM536 Horry StAikenSCTRESPASSING/Entering premises after warn01/08/20152015A0220100058
12/30/2014PrestonAliceMae07/12/196653BF1088 Reynolds PondAIKENSCCHILDREN/cruelty to children11/16/20142014A0220100964
12/09/2014BivensBryanLeigh05/08/199425WM164 Barnhill RoadLadsonSCFORGERY < $10,00010/24/20142014A0220100919
11/25/2014NguyenTien01/18/196752AM146 2nd Loop Rd. Apt 4FlorenceSCDOMESTIC/Criminal Domestic Violence11/25/20142014A0220100861
11/07/2014BensonRodriguez05/23/197742BM1826 Medlar StAugustaGADOMESTIC/Criminal Domestic Violence11/07/20142014A0220100830
11/05/2014BenedictDonald01/01/1753266WM3 Converse DriveAikenSCBREACH/breach of trust with fraudulent i07/12/20142014A0220100826
10/14/2014LongMoniqueShantrell09/17/199029BF1508 Kalmia Apts.GranitevilleSCSHOPLIFTING, VALUE $2,000 OR LESS09/07/20142014A0220100775
10/14/2014JacksonMariell04/14/196851BF735 Chime Bell Church Rd.AikenSCBREACH/breach of trust with fraudulent i09/07/20142014A0220100776
10/11/2014HeardJamesMichael08/09/198930BM555 Pine StAikenSCSHOPLIFTING, VALUE $2,000 OR LESS10/11/20142014A0220100767
10/09/2014SinclairSherryMelissa06/22/197841WF115 Lakeview DrParksvilleSCTELEPHONE/Unlawful Communication after 710/08/20142014A0220100759
08/08/2014SmithKipTimothy02/04/199524WM36 Andover DriveGranitevilleSCASSAULT/assault & battery 3rd degree08/08/20142014A0220100607
08/05/2014FikesNathanielRyan10/11/199326WM410 Baker StreetGranitevilleSCSHOPLIFTING, VALUE $2,000 OR LESS08/04/20142014A0220100605
06/03/2014LafleurJosephR04/21/198138WM987 Nielson StAikenSCUnlawful Use of Telephone06/03/20142014A0220100401
05/25/2014GibbsAnnieRose12/13/197940WF4516 Shawnee DriveMartinezGASHOPLIFTING, VALUE $2,000 OR LESS05/25/20142014A0220100373
05/07/2014DanielsShanaKionne12/18/198632BF71 Jay St.BarnwellSCBREACH/breach of trust with fraudulent i04/18/20142014A0220100332
05/06/2014McClellanRobert11/27/197742WM3455 Romulus DriveDuluthGAGRAND LARCENY MORE THAN $2,000 BUT LESS05/02/20142014A0220100325
05/05/2014McClellanRobert11/27/197742WM3455 Romulus DriveDuluthGABURGLARY 2nd DEGREE05/02/20142014A0220100321
05/05/2014GilchristMartrealVandel04/24/198138BM4340 Broad River RdColumbiaSCOBTAIN PRESCRIPTION DRUGS BY FRAUD05/05/20142014A0220100322
04/24/2014DouseNelsonVelez12/26/198533BM102 C Meadow Wood Pl.AikenSCDOMESTIC/Criminal Domestic Violence04/20/20142014A0220100298
04/24/2014BroxtonOrlando03/22/198435BM7 B Ridgecrest RoadAikenSCLARCENY/Petit or Simple Larceny- $2,00004/19/20142014A0220100299
04/22/2014GloverLesterLeroy09/04/198633BM161 Gregg StreetGranitevilleSCASSAULT/assault & battery 3rd degree04/22/20142014A0220100290
02/17/2014HicksRobertAllan04/22/197247WM46 Janet St.WillistonSCBREACH/breach of trust with fraudulent i02/17/20142014A0220100102
02/05/2014WyattMichaelDennis02/28/196455WM#4 Cardinal CircleAikenSCTRESPASSING/Entering premises after warn02/05/20142014A0220100067
11/13/2013GeterHenry11/18/195168BM5525 U.S. Hwy 21 North Main St.ColumbiaSCCONSPIRACY/CRIMINAL CONSPIRACY COMMON LA10/15/2010I093657
11/04/2013HoxworthJamesEugene10/01/195960WM199 University ParkwayAikenSCFORGERY < $10,00009/23/20132013A0220100973
10/28/2013PattersonAnnette06/06/195861BF1316 Union AvenueFairfaxSCSHOPLIFTING, VALUE $2,000 OR LESS10/28/20132013A0220100956
10/28/2013MarshallLashondaElaine08/20/197049BF533 SaludaFairfaxSCSHOPLIFTING, VALUE $2,000 OR LESS10/28/20132013A0220100957
09/18/2013WhiteTony09/19/198534BM109 Fairway Ridge - Apt. DAikenSCDOMESTIC/Criminal Domestic Violence09/17/20132013A0220100841
09/18/2013EvansCornelius06/06/198633BM1125 Alfred StreetAikenSCMALICIOUS INJURY PERSONAL PROPERTY <$20009/18/20132013A0220100843
08/29/2013JacksonTomeka01/07/197544BFBREACH/breach of trust with fraudulent i08/29/20132013A0220100772
08/18/2013MinorMaurice01/09/199128BM3208 Georgia PlaceAugustaGAFINANCIAL TRANSACTION CARD THEFT08/18/20132013A0220100747
08/10/2013BrownRobertLee10/25/199326BM1947 Kratha DrAugustaGAASSAULT/assault & battery 3rd degree08/05/20132013A0220100737
07/31/2013CouncilMauriceLamont08/29/199029BMUnknownAikenSCROBBERY/ WHILE ARMED W/DEADLY WEAPO07/23/20132013A0220100708
07/31/2013CouncilMauriceLamont08/29/199029BMUnknownAikenSCROBBERY/ WHILE ARMED W/DEADLY WEAPO07/23/20132013A0220100709
07/31/2013CouncilMauriceLamont08/29/199029BMUnknownAikenSCKIDNAPPING07/23/20132013A0220100710
07/31/2013CouncilMauriceLamont08/29/199029BMUnknownAikenSCKIDNAPPING07/23/20132013A0220100711
07/26/2013ForbesJohn08/31/196752BM6409 Wilburn DriveCapital HeightsMDDOMESTIC/Criminal Domestic Violence07/25/20132013A0220100693
07/19/2013ReedKathyLekecia08/04/197742BF204 Cottonwood Dr.North AugustaSCMALICIOUS INJURY PERS.PROP07/05/2008I090772
07/02/2013BlockerKishaWalker03/27/197148BF186 Gregg StreetGranitevilleSCSHOPLIFTING, VALUE $2,000 OR LESS07/02/20132013A0220100640
06/30/2013WalkerMontrelJamar04/30/199326BM151 4th StBarnwellSCMALICIOUS INJURY PERSONAL PROPERTY <$20006/30/20132013A0220100635
06/28/2013DicksYolandaShawna11/01/198732BF500 Laura Ct.WillistonSCBREACH/breach of trust with fraudulent i06/28/20132013A0220100629
06/18/2013LasseterMercedesLatoya05/31/199128B433 Sand Bar Ferry RoadAugustaGASHOPLIFTING MORE THAN $2,000 BUT LESS TH07/02/20122013A0220100161
06/04/2013Arceo-PoolJustino12/16/197939HM4 B Nancy LaneAikenSCNo Driver's License (1st Offense)12/25/2010I093053
04/16/2013CarlosTracy12/17/196850BM915 Bachman Dykes Rd.SwanseaSCOBTAIN SIGNATURE/ PROPERTY BY FALSE PRET12/21/20122013A0220100339
03/18/2013WalcottMichaelAndre07/01/197346BM209 Stewart DriveAikenSCCRIMINAL DOMESTIC VIOLENCE09/07/2009I091902
03/06/2013TaylorHenryR09/30/195465BM230 Emerald LaneBarnwelllSCASSAULT/assault & battery 3rd degree03/05/20132013A0220100222
02/18/2013JonesRobert05/25/198435BM160 Summit StClintonSCBREACH OF TRUST <$2,000 OR LESS12/02/2011I093945
02/16/2013LasseterMercedesLatoya05/31/199128B433 Sand Bar Ferry RoadAugustaGAProviding False Info to PSO07/02/20122013A0220100162
01/31/2013RollinsTarekDanglo07/20/197643BM1017 Oellerich St.AugustaGASIMPLE LARCENY ($2,000 OR LESS)01/31/20132013A0220100099
01/10/2013MathenyHaroldFonte06/13/199128BM151 Goodsprings RoadAikenSCCHILDREN/legal custodian unlawful neglec08/13/20122013A0220100022
01/02/2013KennedyMalcolm12/23/198731BM112 Walkers Pond RoadAikenSCDOMESTIC/criminal domestic violence01/02/20132013A0220100005
11/23/2012EveretteWilliamJonathan04/03/197148WM306 Ivo CircleElginSCSHOPLIFTING/ENHANCEMENT>3RD OR SUB>$100011/23/20122012A0220100583
11/15/2012DukesGeorgeEdward08/19/196653BM415 Park AveJOHNSTONSCLARCENY/FAIL TO RETURN RENTED PROPERTY>$11/11/20122012A0220100566
11/06/2012WilliamsLacoyakeosha02/14/198336BF260 Litchfield St. Apt 327BarnwellSCCHILDREN/legal custodian unlawful neglec11/06/20122012A0220100536
10/05/2012JonesTamaraRenee10/03/198237BF2424 Amsterdam DriveAugustaGAFORGERY < $10,00009/29/20122012A0220100395
09/04/2012HartzogBrittanyLeshay09/13/198831BF306 Litchfield St Apt 386BarnwellSCSHOPLIFTING $2,000 OR LESS02/25/20122012A0220100292
08/23/2012LatifLatifahStarr02/16/199227BF45 Fairclift Dr.CovingtonGAFORGERY < $10,00008/13/20122012A0220100237
08/16/2012MintzChristopherLamont11/21/198336BM342 Aiken RdGranitevilleSCCRIMINAL DOMESTIC VIOLENCE05/24/20122012A0220100220
08/09/2012KowalskiCrystalLynn05/11/198237WF931 Doughtery RdAikenSCSHOPLIFTING $2,000 OR LESS05/16/20122012A0220100189
08/03/2012GovanKristieShea09/05/198732BF1064 Hagwood AveBarnwellSCUNLAWFUL NEGLECT BY LEGAL CUSTODIAN08/03/20122012A0220100149
07/28/2012WittenPhyllisLashawn08/19/197742BF449 Monetta StreetAikenSCASSAULT AND BATTERY 3RD DEGREE07/27/20122012A0220100122
07/09/2012HammondAngela09/19/196851WF205 EVANS STREETMORGANTONNCOBTAIN PRESCRIPTION DRUGS BY FRAUD10/11/2002I-085287
04/24/2012ForkerShaunArthur08/10/197841WM1250 Watsonia DriveAIKENSCBREACH OF TRUST <$2,000 OR LESS04/20/2012I094113
04/16/2012HopeVincentLynn09/14/196158BM167 Land L LaneAIKENSCCRIMINAL DOMESTIC VIOLENCE12/23/2005I088427
04/13/2012EdwinsWilliamHenry02/20/196455WM27 Pride AvenueGRANITEVILLESCOBTAIN PRESCRIPTION DRUGS BY FRAUD02/22/2006I088718
02/07/2012YinglingLawrenceGlenn07/09/197148WM2867 Wells DriveAugustaGAASSAULT AND BATTERY 3RD DEGREE01/20/2012I093889
02/06/2012YinglingLawrenceGlenn07/09/197148WM2867 Wells DriveAugustaGAFAILURE TO COMPLY -CITY CODE01/20/2012I093890
01/23/2012SpannSylvia04/05/195762BF303 Locke Ln.AIKENSCTHEFT OF CABLE01/19/2012I093896
12/15/2011RiceWilliamA.09/07/198831WM2082 Bellford DriveAikenSCASSAULT AND BATTERY 3RD DEGREE12/11/2011I093820
12/13/2011GreenJerome08/07/196851BM3646 Lake Shore LoopMartinezGASHOPLIFTING $2,000 OR LESS12/13/2011I093813
10/27/2011HacklerThomasHarold06/28/196257WMLugoffSCBANKING/FEDERALLY CHARTERED OR INSURED F10/04/2011I093716
10/07/2011WardMiriam09/07/196950WF4414 Windsor Springs RoadHephzibahGAOBTAINING FOOD &LODGING BY FRAUD09/09/2011I093664
10/05/2011WardMiriam09/07/196950WF4414 Windsor Springs RoadHephzibahGABREACH OF TRUST <$2,000 OR LESS09/09/2011I093663
08/27/2011CokerRickyLee02/27/196158WMColumbiaSCCONSPIRACY/CRIMINAL CONSPIRACY COMMON LA02/26/2011I093586
06/23/2011BlairAlonzo07/01/194970BM147 Fairfield St N EAikenSCSIMPLE LARCENY ($2,000 OR LESS)06/21/2011I093445
03/21/2011SimpsonDanya12/31/196652WF2752 Drowning Creek RdDaculaGAFINANCIAL TRANSACTION CARD FRAUD02/16/2011I093230
03/21/2011SimpsonDanya12/31/196652WF2752 Drowning Creek RdDaculaGAFINANCIAL TRANSACTION CARD FRAUD02/16/2011I093231
03/21/2011SimpsonDanya12/31/196652WF2752 Drowning Creek RdDaculaGAFINANCIAL TRANSACTION CARD FRAUD01/28/2011I093232
03/21/2011SimpsonDanya12/31/196652WF2752 Drowning Creek RdDaculaGAFINANCIAL IDENTITY FRAUD01/28/2011I093233
03/21/2011SimpsonDanya12/31/196652WF2752 Drowning Creek RdDaculaGAFINANCIAL TRANSACTION CARD FRAUD01/28/2011I093234
03/21/2011SimpsonDanya12/31/196652WF2752 Drowning Creek RdDaculaGACRIMINAL CONSPIRACY01/28/2011I093235
03/02/2011McarthyJohn01/07/197841BM2576 Saint Patrick St. SeAtlantaGABANKING/FEDERALLY CHARTERED OR INSURED F09/03/2004I087590
12/29/2010Arceo-PoolJustino12/16/197939HM4 B Nancy LaneAikenSCRECKLESS DRIVING12/29/2010I093052
11/15/2010McClureLeslie09/13/198534WF273 Pearl LnWillistonSCLOTTERY/INTENT TO DEFRAUD, COUNTERFEIT10/19/2010I092968
10/08/2010HodgesJimmyLee Evan03/14/198831WM808 New Holland Rd.AikenSCBREACH OF TRUST <$1000 OR LESS11/21/2008I091148
07/23/2010HooperThomasCecil03/24/195465WM1536 A HAMILTON AV,AIKENSCDRIVING UNDER SUSPENSION05/31/2000G338785
05/10/2010WilliamsRobertLee12/25/197642BM1332 DRUID PARK AVEAUGUSTASCNO DRIVERS LICENSE10/14/2001G871483
04/28/2010MurrayMarionIssac07/07/194772BM825 SPRUCE STREET #46AUGUSTAGASIMPLE LARCENY08/17/2000G580276
04/28/2010TaggartHenryL08/03/195762BM604 PARK AVAIKENBREACH OF TRUST11/02/1999G338052
04/27/2010CooperMickeyDelane07/27/196455WM355 A HILL AVEAIKENSCCRIMINAL DOMESTIC VIOLENCE05/30/2002H115703
04/27/2010GarrettJames07/14/198534BM16704 140 AveJamaicaNYSIMPLE ASSAULT & BATTERY05/22/2007I089705
04/22/2010BoswellMaryBrooke08/29/196950WF106 Concord Ave. 15 A1AndersonSCUNLAWFUL USE OF TELEPHONE04/22/2010I092522
03/12/2010CoalindoMauriciaPerez11/01/198237HM30 Converse DrAIKENSCLEAVE SCENE OF ACCIDENT MINOR INJURY04/18/2005I087645
01/05/2010GarryDonnie07/08/198138BM1489 University Parkway Apts.AIKENSCBANK FRAUD07/18/2009I092274
11/29/2009HeardJeremyThomas05/16/198435WM407 Sugarcreek Dr.GrovetownGAMALICIOUS INJURY PERS.PROP11/28/2009I092158
11/29/2009HeardJeremyThomas05/16/198435WM407 Sugarcreek Dr.GrovetownGASIMPLE LARCENY11/28/2009I092159
10/27/2009ReeseJonathanManuel02/14/197841WM4477 Wrightsboro RoadGrovetownGABREACH OF TRUST <$1000 OR LESS10/14/2009I092032
10/17/2009AnthonyTroy06/26/198237BMAugustaGASIMPLE ASSAULT & BATTERY10/16/2009I092006
10/17/2009AnthonyTroy06/26/198237BMAugustaGASIMPLE LARCENY10/16/2009I092007
09/24/2009CalahanTerryJoseph06/02/197643WM5245 River RoadWaynesboroGAShoplifting 1st08/28/2009I091957
07/31/2009DixonDebbieLee Sanders08/28/198138BF118 Reynolds StreetAugustaGAShoplifting more than First07/18/2009I091789
04/13/2009FrettsRobertGlenn12/05/196257WM141 Wrights Mill RoadAIKENSCRECKLESS DRIVING04/13/2009I091476
04/06/2009DIXONGeorgeJoseph10/31/198930WM110 Beard RdBeech IslandSCSIMPLE LARCENY04/04/2009I091454
12/23/2008PierceCindyLynn07/30/198138WF1405 Cassels StreetJacksonSCOPERATING/ALLOW OPR. UNINSURED12/23/2008I091192
12/23/2008PierceCindyLynn07/30/198138WF1405 Cassels StreetJacksonSCProviding False Info to PSO12/22/2008I091193
07/31/2008RodgersRaymondJustin03/04/198039BM2720 Castletown DrHephzibahGAShoplifting 1st07/30/2008I090820
07/15/2008FloraJamesM.06/08/195465WM393 Bain Bridge Dr.AikenSCHARASSMENT/STALKING07/15/2008I090788
04/11/2008PetersonDouglasEdmund08/13/198435BM155 Moores DriveEdgefieldSCSIMPLE ASSAULT & BATTERY04/11/2008I090514
02/21/2008JonesCaprice01/11/197346BMHorry StreetAikenSCSIMPLE ASSAULT & BATTERY02/21/2008I090423
10/27/2007EarleAnthonyB08/11/196059BM785 University PkwyAikenSCSIMPLE ASSAULT & BATTERY10/27/2007I090121
09/19/2007BrinkleyMichelleD08/10/198732WF911 Mocking Bird LnAikenSCCONTRIBUTING TO DELINQUENCY OF MINOR09/16/2007I090009
07/06/2007MorrinJohn06/01/197742WM3608 Richland AveAikenSCBREACH OF TRUST <$1000 OR LESS07/05/2007I089823
06/14/2007MitchumJohnMichael09/25/197643WM813 MT BEULAH RDWINDSORSCFORGERY06/14/2007I089772
06/14/2007MitchumJohnMichael09/25/197643WM813 MT BEULAH RDWINDSORSCFORGERY06/14/2007I089773
05/03/2007CorleyAnthony02/02/197841BM723 Washington Cr.Aiken,SCMALICIOUS INJURY PERS.PROP04/10/2007I089668
02/14/2007WilliamsCleophas02/27/196455BM200 Woodberry Rd Apt 200West ColumbiaSCBREACH OF TRUST >$1000 BUT LESS THAN $5001/16/2007I089487
01/19/2007RandolphMarc01/01/1753266WMKALMIA APARTMENTSGRANITEVILLESCOBTAIN GOODS & LODGE BY FRAUD03/19/2003I-085819
12/20/2006RobinsonGeorgeAlvin06/08/197742BM124 Sumter St NeAikenSCTRESPASSING AFTER NOTICE12/20/2006I089362
12/07/2006GradyKennethEarl08/29/197148WM800 Pretty Run CircleNorth AugustaSCShoplifting 1st12/07/2006I089343
11/29/2006AikenDavidL06/23/198534BM227 Mitchellville RdHILTON HEAD ISLASCVIOLATION OF A RESTRAINING ORDER11/28/2006I089323
10/26/2006MerriweatherPhillip10/10/197346BM159 Courtney RdTrenton/Sc/29847CRIMINAL DOMESTIC VIOLENCE10/26/2006I089235
10/17/2006AikenDavidL06/23/198534BM227 Mitchellville RdHILTON HEAD ISLASCVIOLATION OF RESTRAINING ORDER10/16/2006I089207
05/11/2006ChaviousPamela06/27/197247BF134 Jessica StreetAIKENSCFORGERY04/25/2006I088820
01/12/2006JacksonMichaelJayron07/24/197643BM485 Goodsprings RdAIKENSCDefrauding Innkeeper12/10/2005I088466
12/23/2005HopeVincentLynn09/14/196158BM167 Land L LaneAIKENSCMALICIOUS INJURY TO REAL PROPERTY12/23/2005I088428
12/05/2005BandySandra06/27/195564WF1206 Pine StAIKENSCFAILURE TO STOP FOR BLUE LIGHT/SIREN12/01/2005I088377
04/20/2005CoalindoMauriciaPerez11/01/198237HM30 Converse DrAIKENSCNo Proof of Insurance04/18/2005I087646
04/20/2005CoalindoMauriciaPerez11/01/198237HM30 Converse DrAIKENSCNo Driver's License04/18/2005I087647
04/20/2005CoalindoMauriciaPerez11/01/198237HM30 Converse DrAIKENSCFailure to Yield Right of Way04/20/2005I087644
03/18/2005WheelerJason01/31/198435BM509 Barnwell Ave NeAIKENSCCRIMINAL DOMESTIC VIOLENCE03/18/2005I087552
02/08/2005DealTinaG03/28/196455WF3603 Richland AvenueAIKENSCFORGERY11/29/2004I087410
12/29/2004JoinerMarjaDenya11/27/197742BF11 Lisa St.WILLISTONSCBREACH OF TRUST <$1000 OR LESS12/29/2004I087336
09/16/2004BrownClaudeJames Jr09/13/197841WMAddison StEDGEFIELDSCUNLAWFUL USE OF TELEPHONE09/16/2004I087032
08/14/2004McgeeMarvinWilson03/31/198237WM111 The Heights 2nd AveSALUDASCMALICIOUS INJURY TO REAL PROPERTY <$1,0008/06/2004I086951
07/04/2004JohnsonRayLamont08/12/197247BM310 Lloyd StreetOrangeburgSCBREACH OF TRUST> $500007/02/2004I086768
05/26/2004FryeJarrell11/05/198336BM3042 Mcalpine Dr.AugustaGASIMPLE ASSAULT & BATTERY05/25/2004I086668
05/04/2004MyersDennisReginald04/19/196059BM467 HWY 300BARWELLSCSHOPLIFTING/CONCEALMENT05/04/2004I086641
12/02/2003HaynesAndrewJ. Iii04/03/197643BM5213 BURTON STREETPHILADELPHIAPAOBTAIN GOODS OR LODGE BY FRAUD09/22/2003I-086202
12/02/2003ChandlerJohn01/21/197643BM234 JEHOSSEE DRAIKENSCFORGERY04/16/2000G338916
12/02/2003BrownKennith08/06/195564BM815 LIGON STNWAIKENSCBREACH OF TRUST08/31/2000G580020
12/02/2003HammondAngela09/19/196851WF205 EVANS STREETMORGANTONNCOBTAIN PRESCRIPTION DRUGS BY FRAUD10/19/2002I-085289
12/02/2003KeithVincentta04/10/198534BF123 STALEY DRIVEWAGENERSCFORGERY12/09/2002I-085462
12/02/2003DonaldSeanAndrew04/09/198237BM3616 PAMPLONA DRHEPHZIBAHGAOBTAIN MONEY BY FALSE PRETENSE11/17/2002I-085466
12/02/2003HolmesAlbertWesley04/24/195168BM214 WHISPERING PINES TERRAIKENSCBREACH OF TRUST <$100008/15/2002I-085562
12/02/2003HugheyFrankTodd11/30/197049M3732 FISH HATCHERY CTPELIONSCSTEALING DOG02/24/2003I-085721
12/02/2003BryantLisa12/31/196652WF225 HEDGE RDAIKENSCBREACH OF TRUST < $1,00004/22/2002H115722
12/02/2003FurmanKristenAlicia08/21/198435WF7286 HWY 162HOLLYWOODSCPROVIDING FALSE INFO TO PSO07/10/2002H115806
12/02/2003SamuelsMichaelLeroy09/01/195366BM237 SUMTER ST SEAIKENSCTAMPERING WITH ELECTRIC METER07/10/2002H115837
12/02/2003KennedyGeorge02/13/197445BM110 PARK AVEWILLISTONSCFORGERY08/30/2002I-085149
12/02/2003DicksCornelia10/05/197247BF1038 CARRIAGE DR APT CAIKENSCFILING FALSE POLICE REPORT08/05/2002I-085221
12/02/2003HammondAngela09/19/196851WF205 EVANS STREETMORGANTONNCOBTAIN PRESCRIPTION DRUGS BY FRAUD09/30/2002I-085285
12/02/2003HammondAngela09/19/196851WF205 EVANS STREETMORGANTONNCOBTAIN PRESCRIPTION DRUGS BY FRAUD10/18/2002I-085286
12/02/2003PeekBertramAlexander09/29/197544BM2023 STEINER AVEAUGUSTAGABREACH OF TRUST11/18/2000G580469
12/02/2003WilliamsAntilleLamar05/13/197049BM419 COLLUM STBATESBURGSCSIMPLE ASSAULT & BATTERY05/12/2001G-580951
12/02/2003MoyleDonnaW07/13/196059WF206 STANLEY DRNEW ELLENTONSCDRIVING UNDER SUSPENSION 3RD OFFENSE03/20/2001I085007
12/02/2003MurraySuleman05/21/196653BMPO BOX 325 SANDHILL DRWARRENVILLESCFALSE INFORMATION TO POLICE OFFICER05/27/1997F493304
12/02/2003MurraySuleman05/21/196653BMPO BOX 325 SANDHILL DRWARRENVILLESCDRIVING UNDER SUSPENSION05/27/1997F493305
12/02/2003OsborneHenryDave Jr07/05/195564WM257 MEETING STREET RDEDGEFIELDSCBREACH OF TRUST09/29/1997F493719
12/02/2003JohnsonVictoria01/01/1753266WF422 PALM DRAIKENSCGRAND LARCENY11/21/1997F493895
12/02/2003MelsonShamina08/06/197643BF910 CALLAHAN TERRACEAIKENSCOPERATE/ALLOW OPR. UNINSURED03/07/1999G004757
12/02/2003WorleyJohn07/15/197445WM1203 CHIMEBELL CHRUCH RDAIKENSCSIMPLE LARCENY05/25/1999G004708
Warrant IssuedLast NameFirst NameMiddle NameDOBAgeEthnicitySexAddressCityStateViolationViolation DateWarrant Number

Disclaimer: The City of Aiken and the Aiken Department of Public Safety provide this list as a public service. The information contained in the list is subject to frequent revision and as a result errors may occur. The City of Aiken and the Aiken Department of Public Safety do not warrant, expressly or otherwise, the information contained in the list and will not be responsible for any damages, direct or otherwise, as a result of the users reliance upon the information contained anywhere in the web site. All users are cautioned to verify the information independently of this web site. Information provided should not be relied upon for any type of legal action.